QFA103 YSSY-PHNL
Flight info
| Callsign | QFA103 |
|---|---|
| Flight time | N/A |
| Altitude | 37000 |
| Route | SY3/34L 3358S15112E TESAT B450 NOBAR B580 VESUN B601 ATPEN 17S174E/N0465F390 LATOL CUFFY A579 CARRP OPACA4 |
| Aircraft | A333/H-SDE3GHIJ2J3J5M1RVWXY/LB2D1 |
Departure
| Time | 2026-04-26 11:28 |
|---|---|
| Airport | Sydney Kingsford Smith International Airport (YSSY) |
Arrival
| Time | N/A |
|---|---|
| Airport | Daniel K. Inouye International Airport (PHNL) |
| Time | Latitude | Longitude | Altitude | Speed | Heading |
|---|---|---|---|---|---|
| 2026-04-26 11:04 | -33.93567 | 151.16811 | 25 ft | 0 kts | 237° |
| 2026-04-26 11:14 | -33.93562 | 151.16821 | 25 ft | 3 kts | 234° |
| 2026-04-26 11:14 | -33.93548 | 151.16842 | 25 ft | 3 kts | 226° |
| 2026-04-26 11:14 | -33.93532 | 151.16861 | 27 ft | 3 kts | 218° |
| 2026-04-26 11:15 | -33.93514 | 151.16876 | 28 ft | 3 kts | 209° |
| 2026-04-26 11:15 | -33.93493 | 151.16888 | 30 ft | 3 kts | 200° |
| 2026-04-26 11:15 | -33.93472 | 151.16896 | 27 ft | 3 kts | 191° |
| 2026-04-26 11:15 | -33.93449 | 151.16899 | 29 ft | 3 kts | 181° |
| 2026-04-26 11:16 | -33.93427 | 151.16899 | 29 ft | 3 kts | 173° |
| 2026-04-26 11:16 | -33.93404 | 151.16894 | 27 ft | 3 kts | 167° |
| 2026-04-26 11:16 | -33.93392 | 151.16891 | 29 ft | 0 kts | 167° |
| 2026-04-26 11:19 | -33.93394 | 151.16891 | 29 ft | 1 kts | 169° |
| 2026-04-26 11:19 | -33.93410 | 151.16895 | 29 ft | 4 kts | 168° |
| 2026-04-26 11:20 | -33.93441 | 151.16902 | 29 ft | 6 kts | 168° |
| 2026-04-26 11:20 | -33.93471 | 151.16913 | 28 ft | 7 kts | 159° |
| 2026-04-26 11:20 | -33.93509 | 151.16981 | 25 ft | 8 kts | 86° |
| 2026-04-26 11:20 | -33.93506 | 151.17053 | 26 ft | 9 kts | 101° |
| 2026-04-26 11:21 | -33.93548 | 151.17113 | 29 ft | 10 kts | 155° |
| 2026-04-26 11:21 | -33.93622 | 151.17133 | 28 ft | 12 kts | 167° |
| 2026-04-26 11:21 | -33.93710 | 151.17157 | 25 ft | 15 kts | 168° |
| 2026-04-26 11:21 | -33.93829 | 151.17187 | 19 ft | 19 kts | 168° |
| 2026-04-26 11:22 | -33.93940 | 151.17215 | 25 ft | 11 kts | 169° |
| 2026-04-26 11:22 | -33.94012 | 151.17234 | 26 ft | 10 kts | 167° |
| 2026-04-26 11:22 | -33.94082 | 151.17252 | 29 ft | 11 kts | 167° |
| 2026-04-26 11:22 | -33.94161 | 151.17273 | 28 ft | 13 kts | 168° |
| 2026-04-26 11:23 | -33.94250 | 151.17296 | 27 ft | 14 kts | 168° |
| 2026-04-26 11:23 | -33.94343 | 151.17320 | 29 ft | 13 kts | 168° |
| 2026-04-26 11:23 | -33.94434 | 151.17344 | 30 ft | 14 kts | 167° |
| 2026-04-26 11:23 | -33.94536 | 151.17370 | 30 ft | 16 kts | 168° |
| 2026-04-26 11:24 | -33.94647 | 151.17400 | 30 ft | 17 kts | 168° |
| 2026-04-26 11:24 | -33.94771 | 151.17432 | 27 ft | 20 kts | 168° |
| 2026-04-26 11:24 | -33.94917 | 151.17470 | 26 ft | 23 kts | 168° |
| 2026-04-26 11:24 | -33.95073 | 151.17510 | 28 ft | 23 kts | 168° |
| 2026-04-26 11:25 | -33.95238 | 151.17552 | 24 ft | 25 kts | 167° |
| 2026-04-26 11:25 | -33.95407 | 151.17596 | 29 ft | 24 kts | 167° |
| 2026-04-26 11:25 | -33.95572 | 151.17639 | 28 ft | 24 kts | 168° |
| 2026-04-26 11:25 | -33.95731 | 151.17681 | 28 ft | 23 kts | 167° |
| 2026-04-26 11:26 | -33.95893 | 151.17723 | 29 ft | 25 kts | 168° |
| 2026-04-26 11:26 | -33.96063 | 151.17767 | 28 ft | 24 kts | 167° |
| 2026-04-26 11:26 | -33.96233 | 151.17811 | 31 ft | 26 kts | 168° |
| 2026-04-26 11:26 | -33.96407 | 151.17862 | 27 ft | 25 kts | 152° |
| 2026-04-26 11:27 | -33.96431 | 151.17989 | 28 ft | 14 kts | 79° |
| 2026-04-26 11:27 | -33.96369 | 151.18048 | 28 ft | 12 kts | 356° |
| 2026-04-26 11:27 | -33.96254 | 151.18020 | 31 ft | 33 kts | 348° |
| 2026-04-26 11:27 | -33.95861 | 151.17918 | 28 ft | 81 kts | 348° |
| 2026-04-26 11:28 | -33.95172 | 151.17739 | 28 ft | 121 kts | 348° |
| 2026-04-26 11:28 | -33.94234 | 151.17497 | 44 ft | 152 kts | 350° |
| 2026-04-26 11:28 | -33.93225 | 151.17243 | 481 ft | 147 kts | 349° |
| 2026-04-26 11:28 | -33.92224 | 151.16997 | 925 ft | 147 kts | 354° |
| 2026-04-26 11:29 | -33.91181 | 151.16757 | 1202 ft | 158 kts | 354° |
| 2026-04-26 11:29 | -33.90100 | 151.16480 | 1609 ft | 163 kts | 348° |
| 2026-04-26 11:29 | -33.89083 | 151.15760 | 1781 ft | 184 kts | 315° |
| 2026-04-26 11:29 | -33.88217 | 151.14536 | 1969 ft | 200 kts | 313° |
| 2026-04-26 11:30 | -33.87291 | 151.13204 | 2104 ft | 219 kts | 313° |
| 2026-04-26 11:30 | -33.86602 | 151.12242 | 2200 ft | 232 kts | 313° |
| 2026-04-26 11:30 | -33.85081 | 151.10195 | 2502 ft | 255 kts | 314° |
| 2026-04-26 11:30 | -33.83875 | 151.08611 | 3110 ft | 257 kts | 314° |
| 2026-04-26 11:31 | -33.82677 | 151.07053 | 3790 ft | 256 kts | 314° |
| 2026-04-26 11:31 | -33.81455 | 151.05474 | 4385 ft | 261 kts | 313° |
| 2026-04-26 11:31 | -33.80205 | 151.03865 | 4939 ft | 267 kts | 313° |
| 2026-04-26 11:31 | -33.78916 | 151.02210 | 5467 ft | 274 kts | 312° |
| 2026-04-26 11:32 | -33.77493 | 151.00671 | 6081 ft | 278 kts | 326° |
| 2026-04-26 11:32 | -33.75740 | 150.99713 | 6736 ft | 280 kts | 348° |
| 2026-04-26 11:32 | -33.73809 | 150.99712 | 7362 ft | 280 kts | 16° |
| 2026-04-26 11:32 | -33.72115 | 151.00807 | 8007 ft | 279 kts | 43° |
| 2026-04-26 11:33 | -33.70832 | 151.02510 | 8715 ft | 279 kts | 53° |
| 2026-04-26 11:33 | -33.69752 | 151.04453 | 9359 ft | 282 kts | 59° |
| 2026-04-26 11:33 | -33.68778 | 151.06511 | 10004 ft | 285 kts | 61° |
| 2026-04-26 11:33 | -33.67826 | 151.08627 | 10453 ft | 294 kts | 61° |
| 2026-04-26 11:34 | -33.66820 | 151.10839 | 10697 ft | 310 kts | 60° |
| 2026-04-26 11:34 | -33.65730 | 151.13156 | 10903 ft | 327 kts | 60° |
| 2026-04-26 11:34 | -33.64558 | 151.15567 | 11121 ft | 342 kts | 59° |
| 2026-04-26 11:34 | -33.63321 | 151.18054 | 11492 ft | 351 kts | 59° |
| 2026-04-26 11:35 | -33.62050 | 151.20576 | 12000 ft | 356 kts | 58° |
| 2026-04-26 11:35 | -33.60758 | 151.23126 | 12533 ft | 359 kts | 58° |
| 2026-04-26 11:35 | -33.59471 | 151.25660 | 13066 ft | 362 kts | 58° |
| 2026-04-26 11:35 | -33.58154 | 151.28255 | 13601 ft | 365 kts | 59° |
| 2026-04-26 11:36 | -33.56828 | 151.30869 | 14132 ft | 368 kts | 59° |
| 2026-04-26 11:36 | -33.55492 | 151.33505 | 14602 ft | 371 kts | 59° |
| 2026-04-26 11:36 | -33.54153 | 151.36144 | 15151 ft | 371 kts | 59° |
| 2026-04-26 11:36 | -33.52808 | 151.38796 | 15666 ft | 372 kts | 59° |
| 2026-04-26 11:37 | -33.51462 | 151.41452 | 16152 ft | 374 kts | 59° |
| 2026-04-26 11:37 | -33.50104 | 151.44127 | 16648 ft | 376 kts | 59° |
| 2026-04-26 11:37 | -33.48757 | 151.46781 | 17058 ft | 380 kts | 59° |
| 2026-04-26 11:37 | -33.47375 | 151.49501 | 17455 ft | 384 kts | 59° |
| 2026-04-26 11:38 | -33.45982 | 151.52240 | 17928 ft | 386 kts | 59° |
| 2026-04-26 11:38 | -33.44580 | 151.54993 | 18413 ft | 388 kts | 59° |
| 2026-04-26 11:38 | -33.43171 | 151.57756 | 18824 ft | 390 kts | 59° |
| 2026-04-26 11:38 | -33.41756 | 151.60533 | 19199 ft | 392 kts | 59° |
| 2026-04-26 11:39 | -33.40341 | 151.63304 | 19556 ft | 395 kts | 59° |
| 2026-04-26 11:39 | -33.38907 | 151.66111 | 19975 ft | 396 kts | 59° |
| 2026-04-26 11:39 | -33.37471 | 151.68920 | 20375 ft | 397 kts | 59° |
| 2026-04-26 11:39 | -33.36022 | 151.71753 | 20725 ft | 400 kts | 59° |
| 2026-04-26 11:40 | -33.34565 | 151.74599 | 21074 ft | 403 kts | 59° |
| 2026-04-26 11:40 | -33.33100 | 151.77460 | 21447 ft | 404 kts | 59° |
| 2026-04-26 11:40 | -33.31626 | 151.80335 | 21812 ft | 406 kts | 59° |
| 2026-04-26 11:40 | -33.30146 | 151.83219 | 22160 ft | 409 kts | 59° |
| 2026-04-26 11:41 | -33.28656 | 151.86119 | 22508 ft | 411 kts | 59° |
| 2026-04-26 11:42 | -33.18002 | 152.06799 | 24626 ft | 426 kts | 59° |
| 2026-04-26 11:43 | -33.16445 | 152.09811 | 24896 ft | 427 kts | 59° |
| 2026-04-26 11:43 | -33.14877 | 152.12841 | 25150 ft | 429 kts | 59° |
| 2026-04-26 11:43 | -33.13307 | 152.15874 | 25427 ft | 431 kts | 59° |
| 2026-04-26 11:43 | -33.11746 | 152.18886 | 25685 ft | 433 kts | 59° |
| 2026-04-26 11:44 | -33.10162 | 152.21941 | 25925 ft | 435 kts | 59° |
| 2026-04-26 11:44 | -33.08565 | 152.25018 | 26176 ft | 437 kts | 59° |
| 2026-04-26 11:44 | -33.06962 | 152.28104 | 26433 ft | 439 kts | 59° |
| 2026-04-26 11:44 | -33.05352 | 152.31201 | 26676 ft | 440 kts | 59° |
| 2026-04-26 11:45 | -33.03735 | 152.34308 | 26913 ft | 442 kts | 59° |
| 2026-04-26 11:45 | -33.02110 | 152.37428 | 27151 ft | 444 kts | 59° |
| 2026-04-26 11:45 | -33.00477 | 152.40561 | 27387 ft | 446 kts | 59° |
| 2026-04-26 11:45 | -32.98859 | 152.43663 | 27602 ft | 448 kts | 59° |
| 2026-04-26 11:46 | -32.97209 | 152.46823 | 27836 ft | 450 kts | 59° |
| 2026-04-26 11:46 | -32.95553 | 152.49993 | 28071 ft | 452 kts | 59° |
| 2026-04-26 11:46 | -32.93889 | 152.53175 | 28294 ft | 453 kts | 59° |
| 2026-04-26 11:46 | -32.92219 | 152.56364 | 28556 ft | 454 kts | 59° |
| 2026-04-26 11:47 | -32.90543 | 152.59564 | 28771 ft | 456 kts | 59° |
| 2026-04-26 11:47 | -32.88862 | 152.62770 | 28992 ft | 458 kts | 59° |
| 2026-04-26 11:47 | -32.87172 | 152.65989 | 29204 ft | 460 kts | 59° |
| 2026-04-26 11:47 | -32.85476 | 152.69218 | 29414 ft | 461 kts | 59° |
| 2026-04-26 11:48 | -32.83792 | 152.72421 | 29626 ft | 463 kts | 59° |
| 2026-04-26 11:48 | -32.82084 | 152.75668 | 29820 ft | 465 kts | 59° |
| 2026-04-26 11:48 | -32.80366 | 152.78930 | 30047 ft | 466 kts | 59° |
| 2026-04-26 11:48 | -32.78641 | 152.82203 | 30237 ft | 468 kts | 59° |
| 2026-04-26 11:49 | -32.76911 | 152.85480 | 30467 ft | 469 kts | 59° |
| 2026-04-26 11:49 | -32.75175 | 152.88768 | 30628 ft | 470 kts | 59° |
| 2026-04-26 11:49 | -32.73434 | 152.92064 | 30791 ft | 472 kts | 59° |
| 2026-04-26 11:49 | -32.71685 | 152.95369 | 30948 ft | 473 kts | 59° |
| 2026-04-26 11:50 | -32.69955 | 152.98636 | 31120 ft | 475 kts | 59° |
| 2026-04-26 11:50 | -32.68197 | 153.01953 | 31332 ft | 475 kts | 59° |
| 2026-04-26 11:50 | -32.66436 | 153.05273 | 31527 ft | 475 kts | 59° |
| 2026-04-26 11:50 | -32.64676 | 153.08588 | 31733 ft | 475 kts | 59° |
| 2026-04-26 11:51 | -32.62913 | 153.11906 | 31945 ft | 475 kts | 59° |
| 2026-04-26 11:51 | -32.61150 | 153.15221 | 32198 ft | 474 kts | 59° |
| 2026-04-26 11:51 | -32.59392 | 153.18524 | 32431 ft | 474 kts | 59° |
| 2026-04-26 11:51 | -32.57632 | 153.21826 | 32620 ft | 474 kts | 59° |
| 2026-04-26 11:52 | -32.55892 | 153.25090 | 32800 ft | 474 kts | 59° |
| 2026-04-26 11:52 | -32.54129 | 153.28395 | 32991 ft | 475 kts | 59° |
| 2026-04-26 11:52 | -32.52362 | 153.31703 | 33174 ft | 475 kts | 59° |
| 2026-04-26 11:52 | -32.50596 | 153.35005 | 33342 ft | 475 kts | 59° |
| 2026-04-26 11:53 | -32.48827 | 153.38313 | 33473 ft | 476 kts | 59° |
| 2026-04-26 11:53 | -32.47049 | 153.41633 | 33656 ft | 477 kts | 59° |
| 2026-04-26 11:53 | -32.45276 | 153.44940 | 33849 ft | 476 kts | 59° |
| 2026-04-26 11:54 | -32.41753 | 153.51503 | 34241 ft | 475 kts | 59° |
| 2026-04-26 11:54 | -32.39982 | 153.54798 | 34387 ft | 475 kts | 59° |
| 2026-04-26 11:54 | -32.38207 | 153.58097 | 34526 ft | 475 kts | 59° |
| 2026-04-26 11:54 | -32.36430 | 153.61397 | 34678 ft | 475 kts | 59° |
| 2026-04-26 11:55 | -32.34658 | 153.64686 | 34824 ft | 475 kts | 59° |
| 2026-04-26 11:55 | -32.32880 | 153.67982 | 34929 ft | 475 kts | 59° |
| 2026-04-26 11:55 | -32.31103 | 153.71276 | 35033 ft | 476 kts | 59° |
| 2026-04-26 11:55 | -32.29319 | 153.74576 | 35175 ft | 476 kts | 59° |
| 2026-04-26 11:56 | -32.27541 | 153.77864 | 35380 ft | 474 kts | 59° |
| 2026-04-26 11:56 | -32.25765 | 153.81145 | 35529 ft | 473 kts | 59° |
| 2026-04-26 11:56 | -32.24015 | 153.84376 | 35652 ft | 473 kts | 59° |
| 2026-04-26 11:56 | -32.22241 | 153.87648 | 35774 ft | 473 kts | 59° |
| 2026-04-26 11:57 | -32.20464 | 153.90922 | 35897 ft | 473 kts | 59° |
| 2026-04-26 11:57 | -32.18689 | 153.94191 | 36015 ft | 473 kts | 59° |
| 2026-04-26 11:57 | -32.16912 | 153.97460 | 36149 ft | 473 kts | 59° |
| 2026-04-26 11:58 | -32.13348 | 154.04010 | 36264 ft | 475 kts | 59° |
| 2026-04-26 11:58 | -32.11564 | 154.07284 | 36437 ft | 474 kts | 59° |
| 2026-04-26 11:58 | -32.09807 | 154.10503 | 36586 ft | 473 kts | 59° |
| 2026-04-26 11:58 | -32.08028 | 154.13762 | 36698 ft | 472 kts | 59° |
| 2026-04-26 11:59 | -32.06250 | 154.17017 | 36795 ft | 473 kts | 59° |
| 2026-04-26 11:59 | -32.02685 | 154.23533 | 36981 ft | 473 kts | 59° |
| 2026-04-26 11:59 | -32.00904 | 154.26786 | 37083 ft | 472 kts | 59° |
| 2026-04-26 12:00 | -31.99122 | 154.30036 | 37176 ft | 472 kts | 59° |
| 2026-04-26 12:00 | -31.95397 | 154.36439 | 37262 ft | 476 kts | 53° |
| 2026-04-26 12:01 | -31.91215 | 154.42423 | 37278 ft | 476 kts | 51° |
| 2026-04-26 12:01 | -31.86926 | 154.48337 | 37279 ft | 474 kts | 51° |
| 2026-04-26 12:02 | -31.82628 | 154.54222 | 37276 ft | 474 kts | 51° |
| 2026-04-26 12:02 | -31.78335 | 154.60112 | 37276 ft | 475 kts | 51° |
| 2026-04-26 12:03 | -31.74056 | 154.65986 | 37276 ft | 477 kts | 51° |
| 2026-04-26 12:03 | -31.69741 | 154.71907 | 37275 ft | 476 kts | 51° |
| 2026-04-26 12:04 | -31.65443 | 154.77792 | 37276 ft | 473 kts | 51° |
| 2026-04-26 12:04 | -31.61164 | 154.83642 | 37276 ft | 472 kts | 51° |
| 2026-04-26 12:05 | -31.56879 | 154.89491 | 37275 ft | 474 kts | 51° |
| 2026-04-26 12:05 | -31.52606 | 154.95316 | 37271 ft | 475 kts | 50° |
| 2026-04-26 12:06 | -31.48293 | 155.01185 | 37274 ft | 474 kts | 51° |
| 2026-04-26 12:06 | -31.43995 | 155.07025 | 37273 ft | 473 kts | 50° |
| 2026-04-26 12:07 | -31.39697 | 155.12856 | 37271 ft | 473 kts | 50° |
| 2026-04-26 12:07 | -31.35406 | 155.18669 | 37265 ft | 476 kts | 50° |
| 2026-04-26 12:08 | -31.31067 | 155.24539 | 37265 ft | 477 kts | 50° |
| 2026-04-26 12:08 | -31.26722 | 155.30405 | 37260 ft | 477 kts | 50° |
| 2026-04-26 12:09 | -31.22378 | 155.36262 | 37266 ft | 477 kts | 50° |
| 2026-04-26 12:09 | -31.18027 | 155.42120 | 37263 ft | 478 kts | 50° |
| 2026-04-26 12:10 | -31.13682 | 155.47962 | 37263 ft | 481 kts | 50° |
| 2026-04-26 12:10 | -31.09299 | 155.53844 | 37261 ft | 480 kts | 50° |
| 2026-04-26 12:11 | -31.04915 | 155.59719 | 37264 ft | 480 kts | 50° |
| 2026-04-26 12:11 | -31.00527 | 155.65590 | 37267 ft | 480 kts | 49° |
| 2026-04-26 12:12 | -30.96169 | 155.71413 | 37259 ft | 480 kts | 49° |
| 2026-04-26 12:12 | -30.91776 | 155.77274 | 37254 ft | 480 kts | 49° |
| 2026-04-26 12:13 | -30.87382 | 155.83128 | 37253 ft | 480 kts | 49° |
| 2026-04-26 12:13 | -30.82981 | 155.88983 | 37255 ft | 480 kts | 49° |
| 2026-04-26 12:14 | -30.78609 | 155.94787 | 37262 ft | 481 kts | 49° |
| 2026-04-26 12:14 | -30.74191 | 156.00644 | 37247 ft | 482 kts | 49° |
| 2026-04-26 12:15 | -30.69771 | 156.06494 | 37254 ft | 482 kts | 49° |
| 2026-04-26 12:15 | -30.65343 | 156.12346 | 37244 ft | 482 kts | 49° |
| 2026-04-26 12:16 | -30.60943 | 156.18152 | 37248 ft | 482 kts | 49° |
| 2026-04-26 12:16 | -30.56503 | 156.24005 | 37245 ft | 483 kts | 48° |
| 2026-04-26 12:17 | -30.52058 | 156.29852 | 37249 ft | 483 kts | 47° |
| 2026-04-26 12:17 | -30.47618 | 156.35685 | 37247 ft | 482 kts | 48° |
| 2026-04-26 12:18 | -30.43176 | 156.41513 | 37241 ft | 482 kts | 47° |
| 2026-04-26 12:18 | -30.38763 | 156.47295 | 37237 ft | 483 kts | 47° |
| 2026-04-26 12:19 | -30.34308 | 156.53124 | 37243 ft | 483 kts | 47° |
| 2026-04-26 12:19 | -30.29848 | 156.58948 | 37245 ft | 483 kts | 47° |
| 2026-04-26 12:20 | -30.25396 | 156.64752 | 37241 ft | 482 kts | 47° |
| 2026-04-26 12:20 | -30.20975 | 156.70509 | 37236 ft | 482 kts | 47° |
| 2026-04-26 12:21 | -30.16517 | 156.76306 | 37239 ft | 482 kts | 47° |
| 2026-04-26 12:21 | -30.12057 | 156.82096 | 37234 ft | 482 kts | 47° |
| 2026-04-26 12:22 | -30.07594 | 156.87882 | 37232 ft | 482 kts | 47° |
| 2026-04-26 12:22 | -30.03161 | 156.93620 | 37234 ft | 482 kts | 46° |
| 2026-04-26 12:23 | -29.98705 | 156.99381 | 37231 ft | 481 kts | 46° |
| 2026-04-26 12:23 | -29.94240 | 157.05144 | 37230 ft | 483 kts | 46° |
| 2026-04-26 12:24 | -29.89757 | 157.10921 | 37222 ft | 484 kts | 46° |
| 2026-04-26 12:24 | -29.85269 | 157.16698 | 37223 ft | 484 kts | 46° |
| 2026-04-26 12:25 | -29.78562 | 157.25314 | 37218 ft | 483 kts | 46° |
| 2026-04-26 12:25 | -29.74072 | 157.31072 | 37219 ft | 484 kts | 45° |
| 2026-04-26 12:26 | -29.69563 | 157.36844 | 37220 ft | 486 kts | 45° |
| 2026-04-26 12:26 | -29.65040 | 157.42627 | 37217 ft | 486 kts | 45° |
| 2026-04-26 12:27 | -29.60543 | 157.48368 | 37214 ft | 486 kts | 45° |
| 2026-04-26 12:27 | -29.56018 | 157.54138 | 37214 ft | 486 kts | 45° |
| 2026-04-26 12:28 | -29.51491 | 157.59902 | 37208 ft | 487 kts | 45° |
| 2026-04-26 12:28 | -29.46977 | 157.65639 | 37211 ft | 488 kts | 45° |
| 2026-04-26 12:29 | -29.42428 | 157.71413 | 37208 ft | 488 kts | 45° |
| 2026-04-26 12:30 | -29.35598 | 157.80068 | 37207 ft | 488 kts | 45° |
| 2026-04-26 12:30 | -29.31042 | 157.85830 | 37203 ft | 488 kts | 44° |
| 2026-04-26 12:31 | -29.24216 | 157.94448 | 37201 ft | 489 kts | 44° |
| 2026-04-26 12:31 | -29.19642 | 158.00214 | 37200 ft | 489 kts | 44° |
| 2026-04-26 12:32 | -29.15067 | 158.05972 | 37196 ft | 489 kts | 44° |
| 2026-04-26 12:33 | -29.08199 | 158.14600 | 37182 ft | 489 kts | 44° |
| 2026-04-26 12:33 | -29.03641 | 158.20315 | 37193 ft | 490 kts | 44° |
| 2026-04-26 12:34 | -28.99045 | 158.26070 | 37192 ft | 490 kts | 44° |
| 2026-04-26 12:34 | -28.94454 | 158.31812 | 37192 ft | 490 kts | 44° |
| 2026-04-26 12:35 | -28.89859 | 158.37549 | 37182 ft | 490 kts | 44° |
| 2026-04-26 12:35 | -28.85293 | 158.43243 | 37182 ft | 489 kts | 44° |
| 2026-04-26 12:36 | -28.80694 | 158.48969 | 37187 ft | 489 kts | 44° |
| 2026-04-26 12:36 | -28.76094 | 158.54689 | 37182 ft | 489 kts | 44° |
| 2026-04-26 12:37 | -28.71488 | 158.60408 | 37180 ft | 489 kts | 44° |
| 2026-04-26 12:37 | -28.66886 | 158.66114 | 37182 ft | 489 kts | 44° |
| 2026-04-26 12:38 | -28.62306 | 158.71785 | 37177 ft | 490 kts | 43° |
| 2026-04-26 12:38 | -28.57688 | 158.77495 | 37175 ft | 491 kts | 43° |
| 2026-04-26 12:39 | -28.53064 | 158.83206 | 37173 ft | 491 kts | 43° |
| 2026-04-26 12:39 | -28.48438 | 158.88910 | 37172 ft | 490 kts | 43° |
| 2026-04-26 12:40 | -28.43848 | 158.94563 | 37169 ft | 490 kts | 43° |
| 2026-04-26 12:40 | -28.39220 | 159.00253 | 37167 ft | 490 kts | 43° |
| 2026-04-26 12:41 | -28.34586 | 159.05942 | 37162 ft | 491 kts | 43° |
| 2026-04-26 12:41 | -28.29946 | 159.11633 | 37166 ft | 491 kts | 43° |
| 2026-04-26 12:42 | -28.25334 | 159.17281 | 37167 ft | 491 kts | 43° |
| 2026-04-26 12:42 | -28.20693 | 159.22955 | 37166 ft | 491 kts | 43° |
| 2026-04-26 12:43 | -28.16049 | 159.28624 | 37160 ft | 491 kts | 43° |
| 2026-04-26 12:43 | -28.11400 | 159.34291 | 37161 ft | 491 kts | 43° |
| 2026-04-26 12:44 | -28.06784 | 159.39910 | 37156 ft | 491 kts | 43° |
| 2026-04-26 12:44 | -28.02131 | 159.45568 | 37155 ft | 491 kts | 43° |
| 2026-04-26 12:45 | -27.97478 | 159.51218 | 37152 ft | 491 kts | 43° |
| 2026-04-26 12:45 | -27.92822 | 159.56864 | 37151 ft | 491 kts | 42° |
| 2026-04-26 12:46 | -27.88190 | 159.62472 | 37145 ft | 491 kts | 42° |
| 2026-04-26 12:46 | -27.83524 | 159.68115 | 37146 ft | 491 kts | 42° |
| 2026-04-26 12:47 | -27.78861 | 159.73746 | 37138 ft | 491 kts | 42° |
| 2026-04-26 12:47 | -27.74193 | 159.79377 | 37138 ft | 491 kts | 42° |
| 2026-04-26 12:48 | -27.69555 | 159.84962 | 37129 ft | 491 kts | 42° |
| 2026-04-26 12:48 | -27.64875 | 159.90591 | 37129 ft | 492 kts | 42° |
| 2026-04-26 12:49 | -27.60192 | 159.96216 | 37128 ft | 492 kts | 42° |
| 2026-04-26 12:49 | -27.55508 | 160.01835 | 37126 ft | 492 kts | 42° |
| 2026-04-26 12:50 | -27.50818 | 160.07453 | 37121 ft | 492 kts | 42° |
| 2026-04-26 12:50 | -27.46160 | 160.13026 | 37122 ft | 492 kts | 41° |
| 2026-04-26 12:51 | -27.41458 | 160.18644 | 37118 ft | 493 kts | 41° |
| 2026-04-26 12:51 | -27.36749 | 160.24263 | 37116 ft | 493 kts | 41° |
| 2026-04-26 12:52 | -27.32040 | 160.29874 | 37117 ft | 493 kts | 41° |
| 2026-04-26 12:52 | -27.27361 | 160.35442 | 37120 ft | 493 kts | 41° |
| 2026-04-26 12:53 | -27.22648 | 160.41045 | 37109 ft | 493 kts | 41° |
| 2026-04-26 12:53 | -27.17919 | 160.46658 | 37113 ft | 495 kts | 41° |
| 2026-04-26 12:54 | -27.13180 | 160.52273 | 37111 ft | 496 kts | 41° |
| 2026-04-26 12:54 | -27.08469 | 160.57851 | 37110 ft | 495 kts | 41° |
| 2026-04-26 12:55 | -27.03736 | 160.63448 | 37108 ft | 494 kts | 41° |
| 2026-04-26 12:55 | -26.99002 | 160.69037 | 37092 ft | 494 kts | 40° |
| 2026-04-26 12:56 | -26.94246 | 160.74641 | 37101 ft | 497 kts | 40° |
| 2026-04-26 12:56 | -26.89474 | 160.80260 | 37111 ft | 498 kts | 40° |
| 2026-04-26 12:57 | -26.84734 | 160.85837 | 37100 ft | 498 kts | 40° |
| 2026-04-26 12:57 | -26.79959 | 160.91447 | 37099 ft | 497 kts | 40° |
| 2026-04-26 12:58 | -26.72806 | 160.99836 | 37099 ft | 497 kts | 40° |
| 2026-04-26 12:58 | -26.68014 | 161.05442 | 37095 ft | 500 kts | 40° |
| 2026-04-26 12:59 | -26.63234 | 161.11030 | 37097 ft | 500 kts | 40° |
| 2026-04-26 12:59 | -26.58424 | 161.16649 | 37097 ft | 500 kts | 40° |
| 2026-04-26 13:00 | -26.53609 | 161.22264 | 37101 ft | 500 kts | 40° |
| 2026-04-26 13:00 | -26.48798 | 161.27867 | 37088 ft | 500 kts | 40° |
| 2026-04-26 13:01 | -26.44020 | 161.33426 | 37083 ft | 500 kts | 40° |
| 2026-04-26 13:01 | -26.39206 | 161.39019 | 37092 ft | 500 kts | 39° |
| 2026-04-26 13:02 | -26.34389 | 161.44607 | 37089 ft | 500 kts | 39° |
| 2026-04-26 13:02 | -26.29573 | 161.50187 | 37083 ft | 500 kts | 39° |
| 2026-04-26 13:03 | -26.24787 | 161.55726 | 37050 ft | 500 kts | 39° |
| 2026-04-26 13:03 | -26.19954 | 161.61311 | 37074 ft | 502 kts | 39° |
| 2026-04-26 13:04 | -26.15093 | 161.66920 | 37072 ft | 503 kts | 39° |
| 2026-04-26 13:04 | -26.10233 | 161.72523 | 37068 ft | 503 kts | 39° |
| 2026-04-26 13:05 | -26.05371 | 161.78122 | 37072 ft | 503 kts | 39° |
| 2026-04-26 13:05 | -26.00537 | 161.83681 | 37061 ft | 503 kts | 39° |
| 2026-04-26 13:06 | -25.95666 | 161.89275 | 37061 ft | 505 kts | 38° |
| 2026-04-26 13:06 | -25.90768 | 161.94890 | 37056 ft | 506 kts | 38° |
| 2026-04-26 13:07 | -25.85867 | 162.00505 | 37057 ft | 506 kts | 38° |
| 2026-04-26 13:07 | -25.80998 | 162.06076 | 37054 ft | 506 kts | 38° |
| 2026-04-26 13:08 | -25.76093 | 162.11682 | 37054 ft | 506 kts | 38° |
| 2026-04-26 13:08 | -25.71184 | 162.17282 | 37050 ft | 508 kts | 37° |
| 2026-04-26 13:09 | -25.66235 | 162.22918 | 37049 ft | 511 kts | 37° |
| 2026-04-26 13:09 | -25.61282 | 162.28558 | 37047 ft | 510 kts | 38° |
| 2026-04-26 13:10 | -25.56370 | 162.34146 | 37045 ft | 509 kts | 37° |
| 2026-04-26 13:10 | -25.51425 | 162.39762 | 37036 ft | 509 kts | 37° |
| 2026-04-26 13:11 | -25.46477 | 162.45373 | 37026 ft | 509 kts | 37° |
| 2026-04-26 13:11 | -25.41505 | 162.51000 | 37031 ft | 512 kts | 37° |
| 2026-04-26 13:12 | -25.36552 | 162.56602 | 37030 ft | 513 kts | 37° |
| 2026-04-26 13:12 | -25.31570 | 162.62233 | 37029 ft | 512 kts | 37° |
| 2026-04-26 13:13 | -25.26583 | 162.67861 | 37028 ft | 512 kts | 37° |
| 2026-04-26 13:13 | -25.21598 | 162.73480 | 36997 ft | 512 kts | 36° |
| 2026-04-26 13:14 | -25.16632 | 162.79066 | 37029 ft | 514 kts | 36° |
| 2026-04-26 13:14 | -25.11617 | 162.84702 | 37017 ft | 515 kts | 36° |
| 2026-04-26 13:15 | -25.06594 | 162.90344 | 37018 ft | 515 kts | 36° |
| 2026-04-26 13:15 | -25.02427 | 162.95018 | 37017 ft | 514 kts | 36° |
| 2026-04-26 13:16 | -24.96949 | 163.02014 | 37017 ft | 528 kts | 47° |
| 2026-04-26 13:16 | -24.92937 | 163.08835 | 37013 ft | 533 kts | 50° |
| 2026-04-26 13:17 | -24.87102 | 163.19318 | 37010 ft | 536 kts | 51° |
| 2026-04-26 13:18 | -24.81247 | 163.29791 | 37011 ft | 535 kts | 50° |
| 2026-04-26 13:19 | -24.75387 | 163.40182 | 37000 ft | 535 kts | 50° |
| 2026-04-26 13:19 | -24.71458 | 163.47130 | 36999 ft | 535 kts | 50° |
| 2026-04-26 13:20 | -24.67523 | 163.54085 | 37000 ft | 537 kts | 50° |
| 2026-04-26 13:20 | -24.63593 | 163.61014 | 36997 ft | 537 kts | 50° |
| 2026-04-26 13:21 | -24.59641 | 163.67979 | 36994 ft | 537 kts | 50° |
| 2026-04-26 13:21 | -24.55682 | 163.74943 | 36994 ft | 537 kts | 50° |
| 2026-04-26 13:22 | -24.51719 | 163.81907 | 36992 ft | 537 kts | 49° |
| 2026-04-26 13:22 | -24.47780 | 163.88816 | 36988 ft | 537 kts | 49° |
| 2026-04-26 13:23 | -24.43814 | 163.95765 | 36981 ft | 538 kts | 49° |
| 2026-04-26 13:23 | -24.39835 | 164.02724 | 36985 ft | 539 kts | 49° |
| 2026-04-26 13:24 | -24.35846 | 164.09691 | 36985 ft | 539 kts | 49° |
| 2026-04-26 13:24 | -24.31883 | 164.16604 | 36985 ft | 539 kts | 49° |
| 2026-04-26 13:25 | -24.27892 | 164.23557 | 36982 ft | 539 kts | 49° |
| 2026-04-26 13:25 | -24.23898 | 164.30504 | 36982 ft | 539 kts | 49° |
| 2026-04-26 13:26 | -24.19900 | 164.37448 | 36977 ft | 539 kts | 49° |
| 2026-04-26 13:26 | -24.15926 | 164.44342 | 36979 ft | 539 kts | 49° |
| 2026-04-26 13:27 | -24.11922 | 164.51276 | 36971 ft | 539 kts | 49° |
| 2026-04-26 13:27 | -24.07915 | 164.58206 | 36977 ft | 539 kts | 49° |
| 2026-04-26 13:28 | -24.03905 | 164.65131 | 36969 ft | 539 kts | 49° |
| 2026-04-26 13:28 | -23.99892 | 164.72053 | 36964 ft | 539 kts | 49° |
| 2026-04-26 13:29 | -23.95907 | 164.78919 | 36973 ft | 538 kts | 49° |
| 2026-04-26 13:29 | -23.91893 | 164.85823 | 36967 ft | 538 kts | 49° |
| 2026-04-26 13:30 | -23.87875 | 164.92723 | 36961 ft | 538 kts | 48° |
| 2026-04-26 13:30 | -23.83857 | 164.99613 | 36965 ft | 538 kts | 48° |
| 2026-04-26 13:31 | -23.79862 | 165.06457 | 36965 ft | 538 kts | 48° |
| 2026-04-26 13:31 | -23.75841 | 165.13336 | 36955 ft | 537 kts | 48° |
| 2026-04-26 13:32 | -23.71819 | 165.20206 | 36959 ft | 537 kts | 48° |
| 2026-04-26 13:32 | -23.67805 | 165.27052 | 36959 ft | 537 kts | 48° |
| 2026-04-26 13:33 | -23.63782 | 165.33907 | 36952 ft | 536 kts | 48° |
| 2026-04-26 13:33 | -23.60445 | 165.39585 | 36950 ft | 535 kts | 48° |
| 2026-04-26 13:34 | -23.55775 | 165.47519 | 36947 ft | 535 kts | 48° |
| 2026-04-26 13:34 | -23.51752 | 165.54342 | 36944 ft | 535 kts | 48° |
| 2026-04-26 13:35 | -23.48406 | 165.60012 | 36944 ft | 535 kts | 48° |
| 2026-04-26 13:35 | -23.44379 | 165.66826 | 36938 ft | 535 kts | 48° |
| 2026-04-26 13:36 | -23.39697 | 165.74739 | 36926 ft | 534 kts | 48° |
| 2026-04-26 13:36 | -23.36328 | 165.80429 | 36934 ft | 533 kts | 47° |
| 2026-04-26 13:37 | -23.32318 | 165.87191 | 36930 ft | 531 kts | 47° |
| 2026-04-26 13:37 | -23.28331 | 165.93899 | 36936 ft | 531 kts | 47° |
| 2026-04-26 13:38 | -23.24316 | 166.00647 | 36929 ft | 531 kts | 47° |
| 2026-04-26 13:38 | -23.20301 | 166.07386 | 36928 ft | 531 kts | 47° |
| 2026-04-26 13:39 | -23.16281 | 166.14127 | 36928 ft | 531 kts | 47° |
| 2026-04-26 13:39 | -23.12295 | 166.20805 | 36915 ft | 530 kts | 47° |
| 2026-04-26 13:40 | -23.08299 | 166.27494 | 36928 ft | 526 kts | 47° |
| 2026-04-26 13:40 | -23.04313 | 166.34149 | 36925 ft | 525 kts | 47° |
| 2026-04-26 13:41 | -23.00330 | 166.40789 | 36920 ft | 525 kts | 47° |
| 2026-04-26 13:41 | -22.96366 | 166.47390 | 36922 ft | 525 kts | 47° |
| 2026-04-26 13:42 | -22.92376 | 166.54028 | 36921 ft | 525 kts | 47° |
| 2026-04-26 13:42 | -22.88387 | 166.60658 | 36911 ft | 524 kts | 47° |
| 2026-04-26 13:43 | -22.84424 | 166.67236 | 36895 ft | 524 kts | 47° |
| 2026-04-26 13:43 | -22.80442 | 166.73834 | 36903 ft | 523 kts | 47° |
| 2026-04-26 13:44 | -22.76461 | 166.80422 | 36902 ft | 523 kts | 47° |
| 2026-04-26 13:44 | -22.72472 | 166.87011 | 36887 ft | 523 kts | 47° |
| 2026-04-26 13:45 | -22.68485 | 166.93593 | 36890 ft | 523 kts | 47° |
| 2026-04-26 13:45 | -22.64521 | 167.00127 | 36920 ft | 523 kts | 47° |
| 2026-04-26 13:46 | -22.60529 | 167.06701 | 36904 ft | 522 kts | 47° |
| 2026-04-26 13:46 | -22.56536 | 167.13267 | 36906 ft | 523 kts | 47° |
| 2026-04-26 13:47 | -22.52531 | 167.19844 | 36908 ft | 523 kts | 47° |
| 2026-04-26 13:47 | -22.48525 | 167.26417 | 36908 ft | 523 kts | 47° |
| 2026-04-26 13:48 | -22.44546 | 167.32938 | 36910 ft | 523 kts | 47° |
| 2026-04-26 13:48 | -22.40535 | 167.39502 | 36905 ft | 523 kts | 47° |
| 2026-04-26 13:49 | -22.36522 | 167.46059 | 36903 ft | 523 kts | 47° |
| 2026-04-26 13:49 | -22.32509 | 167.52609 | 36900 ft | 523 kts | 47° |
| 2026-04-26 13:50 | -22.28520 | 167.59114 | 36887 ft | 523 kts | 47° |
| 2026-04-26 13:50 | -22.24505 | 167.65653 | 36900 ft | 521 kts | 47° |
| 2026-04-26 13:51 | -22.20501 | 167.72166 | 36900 ft | 521 kts | 47° |
| 2026-04-26 13:51 | -22.16495 | 167.78670 | 36897 ft | 521 kts | 47° |
| 2026-04-26 13:52 | -22.12512 | 167.85131 | 36895 ft | 520 kts | 47° |
| 2026-04-26 13:52 | -22.08502 | 167.91629 | 36898 ft | 521 kts | 47° |
| 2026-04-26 13:53 | -22.04489 | 167.98124 | 36893 ft | 520 kts | 47° |
| 2026-04-26 13:53 | -22.00482 | 168.04605 | 36872 ft | 518 kts | 47° |
| 2026-04-26 13:54 | -21.96517 | 168.11010 | 36889 ft | 516 kts | 47° |
| 2026-04-26 13:54 | -21.92534 | 168.17432 | 36889 ft | 516 kts | 47° |
| 2026-04-26 13:55 | -21.87223 | 168.25980 | 36886 ft | 516 kts | 47° |
| 2026-04-26 13:56 | -21.80563 | 168.36688 | 36881 ft | 515 kts | 47° |
| 2026-04-26 13:56 | -21.76601 | 168.43048 | 36885 ft | 514 kts | 47° |
| 2026-04-26 13:57 | -21.72618 | 168.49434 | 36848 ft | 514 kts | 47° |
| 2026-04-26 13:57 | -21.68633 | 168.55815 | 36879 ft | 513 kts | 47° |
| 2026-04-26 13:58 | -21.64659 | 168.62172 | 36885 ft | 512 kts | 47° |
| 2026-04-26 13:58 | -21.60686 | 168.68518 | 36886 ft | 512 kts | 47° |
| 2026-04-26 13:59 | -21.56738 | 168.74818 | 36877 ft | 510 kts | 47° |
| 2026-04-26 13:59 | -21.52777 | 168.81135 | 36881 ft | 509 kts | 47° |
| 2026-04-26 14:00 | -21.44855 | 168.93738 | 36882 ft | 509 kts | 47° |
| 2026-04-26 14:01 | -21.40918 | 168.99990 | 36872 ft | 508 kts | 47° |
| 2026-04-26 14:01 | -21.36965 | 169.06265 | 36880 ft | 507 kts | 47° |
| 2026-04-26 14:02 | -21.33007 | 169.12537 | 36879 ft | 507 kts | 47° |
| 2026-04-26 14:02 | -21.29051 | 169.18800 | 36881 ft | 507 kts | 47° |
| 2026-04-26 14:03 | -21.25117 | 169.25020 | 36878 ft | 507 kts | 47° |
| 2026-04-26 14:03 | -21.21155 | 169.31279 | 36879 ft | 507 kts | 47° |
| 2026-04-26 14:04 | -21.17189 | 169.37536 | 36884 ft | 507 kts | 47° |
| 2026-04-26 14:04 | -21.13223 | 169.43788 | 36872 ft | 507 kts | 47° |
| 2026-04-26 14:05 | -21.09264 | 169.50023 | 36878 ft | 506 kts | 47° |
| 2026-04-26 14:05 | -21.05330 | 169.56209 | 36878 ft | 506 kts | 47° |
| 2026-04-26 14:06 | -21.01368 | 169.62431 | 36876 ft | 506 kts | 47° |
| 2026-04-26 14:06 | -20.97403 | 169.68652 | 36877 ft | 506 kts | 47° |
| 2026-04-26 14:07 | -20.93438 | 169.74867 | 36877 ft | 506 kts | 47° |
| 2026-04-26 14:07 | -20.89500 | 169.81033 | 36876 ft | 506 kts | 47° |
| 2026-04-26 14:08 | -20.85533 | 169.87238 | 36880 ft | 505 kts | 47° |
| 2026-04-26 14:08 | -20.81575 | 169.93425 | 36872 ft | 502 kts | 47° |
| 2026-04-26 14:09 | -20.77652 | 169.99553 | 36879 ft | 498 kts | 47° |
| 2026-04-26 14:09 | -20.73737 | 170.05653 | 36876 ft | 498 kts | 47° |
| 2026-04-26 14:10 | -20.69844 | 170.11711 | 36876 ft | 498 kts | 47° |
| 2026-04-26 14:10 | -20.65922 | 170.17811 | 36876 ft | 498 kts | 47° |
| 2026-04-26 14:11 | -20.60047 | 170.26941 | 36880 ft | 497 kts | 47° |
| 2026-04-26 14:11 | -20.56161 | 170.32970 | 36875 ft | 496 kts | 47° |
| 2026-04-26 14:12 | -20.52245 | 170.39038 | 36873 ft | 496 kts | 47° |
| 2026-04-26 14:12 | -20.48339 | 170.45088 | 36878 ft | 494 kts | 47° |
| 2026-04-26 14:13 | -20.44203 | 170.50849 | 36881 ft | 483 kts | 38° |
| 2026-04-26 14:13 | -20.41886 | 170.53431 | 36872 ft | 481 kts | 37° |
| 2026-04-26 14:14 | -20.37148 | 170.58450 | 36873 ft | 479 kts | 36° |
| 2026-04-26 14:14 | -20.32401 | 170.63365 | 36872 ft | 479 kts | 36° |
| 2026-04-26 14:15 | -20.27621 | 170.68317 | 36873 ft | 479 kts | 36° |
| 2026-04-26 14:15 | -20.22851 | 170.73277 | 36879 ft | 479 kts | 36° |
| 2026-04-26 14:16 | -20.18081 | 170.78240 | 36869 ft | 480 kts | 36° |
| 2026-04-26 14:16 | -20.13342 | 170.83170 | 36870 ft | 480 kts | 36° |
| 2026-04-26 14:17 | -20.08568 | 170.88131 | 36872 ft | 480 kts | 36° |
| 2026-04-26 14:17 | -20.03794 | 170.93087 | 36868 ft | 480 kts | 36° |
| 2026-04-26 14:18 | -19.99008 | 170.98049 | 36867 ft | 481 kts | 36° |
| 2026-04-26 14:18 | -19.94214 | 171.03015 | 36867 ft | 481 kts | 36° |
| 2026-04-26 14:19 | -19.89454 | 171.07944 | 36862 ft | 481 kts | 36° |
| 2026-04-26 14:19 | -19.84659 | 171.12904 | 36867 ft | 481 kts | 36° |
| 2026-04-26 14:20 | -19.79859 | 171.17864 | 36867 ft | 481 kts | 36° |
| 2026-04-26 14:20 | -19.75059 | 171.22820 | 36867 ft | 481 kts | 36° |
| 2026-04-26 14:21 | -19.70288 | 171.27742 | 36864 ft | 481 kts | 36° |
| 2026-04-26 14:21 | -19.65485 | 171.32692 | 36865 ft | 481 kts | 36° |
| 2026-04-26 14:22 | -19.60691 | 171.37629 | 36863 ft | 481 kts | 36° |
| 2026-04-26 14:22 | -19.55893 | 171.42565 | 36864 ft | 480 kts | 37° |
| 2026-04-26 14:23 | -19.51105 | 171.47488 | 36865 ft | 479 kts | 37° |
| 2026-04-26 14:23 | -19.46347 | 171.52375 | 36864 ft | 479 kts | 37° |
| 2026-04-26 14:24 | -19.41558 | 171.57288 | 36863 ft | 479 kts | 37° |
| 2026-04-26 14:24 | -19.36768 | 171.62198 | 36862 ft | 479 kts | 37° |
| 2026-04-26 14:25 | -19.31975 | 171.67109 | 36857 ft | 479 kts | 37° |
| 2026-04-26 14:25 | -19.27183 | 171.72014 | 36844 ft | 479 kts | 37° |
| 2026-04-26 14:26 | -19.22424 | 171.76880 | 36860 ft | 479 kts | 37° |
| 2026-04-26 14:26 | -19.17627 | 171.81782 | 36859 ft | 479 kts | 37° |
| 2026-04-26 14:27 | -19.12834 | 171.86675 | 36859 ft | 479 kts | 37° |
| 2026-04-26 14:27 | -19.08031 | 171.91573 | 36859 ft | 479 kts | 37° |
| 2026-04-26 14:28 | -19.03265 | 171.96431 | 36858 ft | 479 kts | 37° |
| 2026-04-26 14:28 | -18.98464 | 172.01320 | 36859 ft | 479 kts | 37° |
| 2026-04-26 14:29 | -18.93660 | 172.06208 | 36854 ft | 479 kts | 38° |
| 2026-04-26 14:29 | -18.88863 | 172.11084 | 36859 ft | 479 kts | 38° |
| 2026-04-26 14:30 | -18.84096 | 172.15926 | 36858 ft | 479 kts | 38° |
| 2026-04-26 14:30 | -18.79293 | 172.20800 | 36853 ft | 479 kts | 38° |
| 2026-04-26 14:31 | -18.74489 | 172.25672 | 36855 ft | 479 kts | 38° |
| 2026-04-26 14:31 | -18.69684 | 172.30540 | 36854 ft | 479 kts | 38° |
| 2026-04-26 14:32 | -18.64878 | 172.35406 | 36854 ft | 479 kts | 38° |
| 2026-04-26 14:32 | -18.60105 | 172.40234 | 36856 ft | 479 kts | 38° |
| 2026-04-26 14:33 | -18.55286 | 172.45103 | 36842 ft | 481 kts | 37° |
| 2026-04-26 14:33 | -18.50449 | 172.49987 | 36852 ft | 482 kts | 37° |
| 2026-04-26 14:34 | -18.45609 | 172.54872 | 36860 ft | 482 kts | 37° |
| 2026-04-26 14:34 | -18.40803 | 172.59718 | 36845 ft | 482 kts | 37° |
| 2026-04-26 14:35 | -18.35958 | 172.64599 | 36858 ft | 482 kts | 37° |
| 2026-04-26 14:35 | -18.31119 | 172.69470 | 36852 ft | 482 kts | 37° |
| 2026-04-26 14:36 | -18.26275 | 172.74342 | 36842 ft | 481 kts | 38° |
| 2026-04-26 14:36 | -18.21471 | 172.79170 | 36853 ft | 481 kts | 38° |
| 2026-04-26 14:37 | -18.16635 | 172.84026 | 36848 ft | 481 kts | 37° |
| 2026-04-26 14:37 | -18.11802 | 172.88875 | 36848 ft | 481 kts | 37° |
| 2026-04-26 14:38 | -18.06960 | 172.93729 | 36852 ft | 481 kts | 37° |
| 2026-04-26 14:38 | -18.02154 | 172.98543 | 36844 ft | 481 kts | 37° |
| 2026-04-26 14:39 | -17.97313 | 173.03388 | 36840 ft | 481 kts | 37° |
| 2026-04-26 14:39 | -17.92475 | 173.08227 | 36852 ft | 481 kts | 37° |
| 2026-04-26 14:40 | -17.87630 | 173.13069 | 36851 ft | 481 kts | 37° |
| 2026-04-26 14:40 | -17.82821 | 173.17870 | 36843 ft | 480 kts | 38° |
| 2026-04-26 14:41 | -17.77980 | 173.22701 | 36847 ft | 480 kts | 37° |
| 2026-04-26 14:41 | -17.73142 | 173.27524 | 36848 ft | 480 kts | 37° |
| 2026-04-26 14:42 | -17.68302 | 173.32344 | 36851 ft | 480 kts | 37° |
| 2026-04-26 14:42 | -17.63464 | 173.37160 | 36848 ft | 480 kts | 37° |
| 2026-04-26 14:43 | -17.58631 | 173.41969 | 36847 ft | 477 kts | 38° |
| 2026-04-26 14:43 | -17.53858 | 173.46714 | 36843 ft | 476 kts | 38° |
| 2026-04-26 14:44 | -17.49048 | 173.51489 | 36842 ft | 476 kts | 38° |
| 2026-04-26 14:44 | -17.44237 | 173.56264 | 36842 ft | 477 kts | 38° |
| 2026-04-26 14:45 | -17.39418 | 173.61041 | 36846 ft | 477 kts | 38° |
| 2026-04-26 14:45 | -17.34630 | 173.65785 | 36840 ft | 477 kts | 38° |
| 2026-04-26 14:46 | -17.29802 | 173.70565 | 36837 ft | 477 kts | 38° |
| 2026-04-26 14:46 | -17.24982 | 173.75334 | 36843 ft | 477 kts | 39° |
| 2026-04-26 14:47 | -17.20160 | 173.80101 | 36839 ft | 477 kts | 39° |
| 2026-04-26 14:47 | -17.15338 | 173.84865 | 36838 ft | 477 kts | 39° |
| 2026-04-26 14:48 | -17.10544 | 173.89597 | 36839 ft | 477 kts | 39° |
| 2026-04-26 14:48 | -17.05722 | 173.94354 | 36840 ft | 476 kts | 39° |
| 2026-04-26 14:49 | -17.00906 | 173.99102 | 36839 ft | 476 kts | 39° |
| 2026-04-26 14:49 | -16.96047 | 174.03785 | 36840 ft | 475 kts | 38° |
| 2026-04-26 14:50 | -16.91190 | 174.08371 | 36841 ft | 473 kts | 38° |
| 2026-04-26 14:50 | -16.86310 | 174.12971 | 36840 ft | 473 kts | 38° |
| 2026-04-26 14:51 | -16.81431 | 174.17579 | 36838 ft | 473 kts | 38° |
| 2026-04-26 14:51 | -16.76561 | 174.22183 | 36836 ft | 473 kts | 38° |
| 2026-04-26 14:52 | -16.71718 | 174.26759 | 36837 ft | 473 kts | 38° |
| 2026-04-26 14:52 | -16.66840 | 174.31365 | 36837 ft | 473 kts | 38° |
| 2026-04-26 14:53 | -16.61963 | 174.35966 | 36838 ft | 473 kts | 38° |
| 2026-04-26 14:53 | -16.57081 | 174.40568 | 36837 ft | 473 kts | 38° |
| 2026-04-26 14:54 | -16.52202 | 174.45165 | 36838 ft | 473 kts | 38° |
| 2026-04-26 14:54 | -16.47352 | 174.49731 | 36836 ft | 473 kts | 38° |
| 2026-04-26 14:55 | -16.42464 | 174.54330 | 36837 ft | 473 kts | 38° |
| 2026-04-26 14:55 | -16.37579 | 174.58922 | 36837 ft | 473 kts | 38° |
| 2026-04-26 14:56 | -16.32728 | 174.63479 | 36837 ft | 473 kts | 38° |
| 2026-04-26 14:56 | -16.27841 | 174.68067 | 36836 ft | 473 kts | 38° |
| 2026-04-26 14:57 | -16.22951 | 174.72655 | 36839 ft | 473 kts | 38° |
| 2026-04-26 14:57 | -16.18056 | 174.77243 | 36838 ft | 474 kts | 38° |
| 2026-04-26 14:58 | -16.13194 | 174.81798 | 36840 ft | 474 kts | 38° |
| 2026-04-26 14:58 | -16.08297 | 174.86382 | 36838 ft | 474 kts | 38° |
| 2026-04-26 14:59 | -16.03397 | 174.90966 | 36839 ft | 474 kts | 38° |
| 2026-04-26 14:59 | -15.98497 | 174.95548 | 36838 ft | 474 kts | 38° |
| 2026-04-26 15:00 | -15.93598 | 175.00124 | 36842 ft | 474 kts | 38° |
| 2026-04-26 15:00 | -15.88729 | 175.04670 | 36845 ft | 474 kts | 38° |
| 2026-04-26 15:01 | -15.83817 | 175.09252 | 36843 ft | 476 kts | 38° |
| 2026-04-26 15:01 | -15.78887 | 175.13848 | 36843 ft | 476 kts | 38° |
| 2026-04-26 15:02 | -15.73985 | 175.18415 | 36843 ft | 476 kts | 38° |
| 2026-04-26 15:02 | -15.69052 | 175.23009 | 36842 ft | 476 kts | 38° |
| 2026-04-26 15:03 | -15.64119 | 175.27599 | 36845 ft | 476 kts | 38° |
| 2026-04-26 15:03 | -15.59188 | 175.32184 | 36839 ft | 476 kts | 38° |
| 2026-04-26 15:04 | -15.54254 | 175.36768 | 36840 ft | 475 kts | 38° |
| 2026-04-26 15:04 | -15.49368 | 175.41305 | 36843 ft | 475 kts | 38° |
| 2026-04-26 15:05 | -15.44444 | 175.45874 | 36841 ft | 476 kts | 38° |
| 2026-04-26 15:05 | -15.39511 | 175.50449 | 36844 ft | 476 kts | 38° |
| 2026-04-26 15:06 | -15.34568 | 175.55029 | 36844 ft | 476 kts | 38° |
| 2026-04-26 15:06 | -15.29631 | 175.59602 | 36844 ft | 476 kts | 38° |
| 2026-04-26 15:07 | -15.22252 | 175.66430 | 36841 ft | 476 kts | 39° |
| 2026-04-26 15:07 | -15.17326 | 175.70985 | 36844 ft | 474 kts | 39° |
| 2026-04-26 15:08 | -15.12408 | 175.75529 | 36843 ft | 474 kts | 39° |
| 2026-04-26 15:08 | -15.07484 | 175.80075 | 36841 ft | 474 kts | 39° |
| 2026-04-26 15:09 | -15.02598 | 175.84584 | 36842 ft | 474 kts | 39° |
| 2026-04-26 15:09 | -14.97682 | 175.89117 | 36844 ft | 473 kts | 39° |
| 2026-04-26 15:10 | -14.93596 | 175.92883 | 36843 ft | 473 kts | 39° |
| 2026-04-26 15:10 | -14.87846 | 175.98178 | 36842 ft | 473 kts | 39° |
| 2026-04-26 15:11 | -14.82934 | 176.02700 | 36846 ft | 472 kts | 39° |
| 2026-04-26 15:11 | -14.78059 | 176.07184 | 36841 ft | 472 kts | 39° |
| 2026-04-26 15:12 | -14.73154 | 176.11693 | 36843 ft | 472 kts | 39° |
| 2026-04-26 15:12 | -14.68246 | 176.16202 | 36842 ft | 472 kts | 39° |
| 2026-04-26 15:13 | -14.63333 | 176.20713 | 36842 ft | 472 kts | 39° |
| 2026-04-26 15:13 | -14.58454 | 176.25190 | 36843 ft | 472 kts | 39° |
| 2026-04-26 15:14 | -14.53543 | 176.29692 | 36846 ft | 472 kts | 39° |
| 2026-04-26 15:14 | -14.48630 | 176.34195 | 36841 ft | 472 kts | 39° |
| 2026-04-26 15:15 | -14.43717 | 176.38694 | 36844 ft | 472 kts | 39° |
| 2026-04-26 15:15 | -14.38804 | 176.43191 | 36844 ft | 472 kts | 39° |
| 2026-04-26 15:16 | -14.33922 | 176.47657 | 36844 ft | 472 kts | 39° |
| 2026-04-26 15:16 | -14.29006 | 176.52151 | 36843 ft | 472 kts | 39° |
| 2026-04-26 15:17 | -14.24922 | 176.55882 | 36845 ft | 472 kts | 39° |
| 2026-04-26 15:17 | -14.19176 | 176.61128 | 36841 ft | 472 kts | 39° |
| 2026-04-26 15:18 | -14.14286 | 176.65590 | 36841 ft | 473 kts | 39° |
| 2026-04-26 15:18 | -14.09351 | 176.70090 | 36843 ft | 474 kts | 39° |
| 2026-04-26 15:19 | -14.04418 | 176.74587 | 36841 ft | 474 kts | 39° |
| 2026-04-26 15:19 | -13.99479 | 176.79086 | 36841 ft | 474 kts | 39° |
| 2026-04-26 15:20 | -13.94578 | 176.83547 | 36841 ft | 474 kts | 39° |
| 2026-04-26 15:20 | -13.89641 | 176.88039 | 36836 ft | 474 kts | 39° |
| 2026-04-26 15:21 | -13.84702 | 176.92529 | 36840 ft | 474 kts | 39° |
| 2026-04-26 15:21 | -13.79767 | 176.97014 | 36835 ft | 474 kts | 39° |
| 2026-04-26 15:22 | -13.74847 | 177.01482 | 36837 ft | 475 kts | 39° |
| 2026-04-26 15:22 | -13.69888 | 177.05983 | 36836 ft | 475 kts | 39° |
| 2026-04-26 15:23 | -13.64931 | 177.10480 | 36842 ft | 475 kts | 39° |
| 2026-04-26 15:23 | -13.59967 | 177.14980 | 36840 ft | 475 kts | 39° |
| 2026-04-26 15:24 | -13.55040 | 177.19444 | 36839 ft | 475 kts | 39° |
| 2026-04-26 15:24 | -13.50078 | 177.23938 | 36838 ft | 475 kts | 39° |
| 2026-04-26 15:25 | -13.45954 | 177.27670 | 36833 ft | 475 kts | 39° |
| 2026-04-26 15:25 | -13.40160 | 177.32911 | 36835 ft | 475 kts | 39° |
| 2026-04-26 15:26 | -13.35197 | 177.37397 | 36842 ft | 476 kts | 39° |
| 2026-04-26 15:26 | -13.30260 | 177.41858 | 36839 ft | 476 kts | 39° |
| 2026-04-26 15:27 | -13.25288 | 177.46346 | 36841 ft | 476 kts | 39° |
| 2026-04-26 15:27 | -13.20317 | 177.50833 | 36835 ft | 476 kts | 39° |
| 2026-04-26 15:28 | -13.15342 | 177.55320 | 36834 ft | 476 kts | 39° |
| 2026-04-26 15:28 | -13.10368 | 177.59804 | 36830 ft | 476 kts | 39° |
| 2026-04-26 15:29 | -13.05424 | 177.64257 | 36830 ft | 476 kts | 39° |
| 2026-04-26 15:30 | -12.95468 | 177.73219 | 36828 ft | 477 kts | 39° |
| 2026-04-26 15:30 | -12.90479 | 177.77706 | 36841 ft | 477 kts | 39° |
| 2026-04-26 15:31 | -12.83028 | 177.84403 | 36845 ft | 477 kts | 39° |
| 2026-04-26 15:32 | -12.76383 | 177.90371 | 36829 ft | 477 kts | 39° |
| 2026-04-26 15:32 | -12.70544 | 177.95612 | 36842 ft | 478 kts | 39° |
| 2026-04-26 15:33 | -12.65579 | 178.00065 | 36835 ft | 478 kts | 40° |
| 2026-04-26 15:33 | -12.60578 | 178.04549 | 36837 ft | 478 kts | 39° |
| 2026-04-26 15:34 | -12.55577 | 178.09029 | 36841 ft | 478 kts | 39° |
| 2026-04-26 15:34 | -12.50572 | 178.13511 | 36828 ft | 479 kts | 40° |
| 2026-04-26 15:35 | -12.45592 | 178.17968 | 36827 ft | 479 kts | 40° |
| 2026-04-26 15:35 | -12.40579 | 178.22453 | 36821 ft | 479 kts | 40° |
| 2026-04-26 15:36 | -12.35559 | 178.26941 | 36830 ft | 480 kts | 40° |
| 2026-04-26 15:36 | -12.30534 | 178.31431 | 36832 ft | 480 kts | 40° |
| 2026-04-26 15:37 | -12.25539 | 178.35892 | 36834 ft | 480 kts | 40° |
| 2026-04-26 15:37 | -12.20508 | 178.40383 | 36838 ft | 480 kts | 40° |
| 2026-04-26 15:38 | -12.15479 | 178.44870 | 36826 ft | 480 kts | 40° |
| 2026-04-26 15:38 | -12.10450 | 178.49355 | 36836 ft | 480 kts | 40° |
| 2026-04-26 15:39 | -12.05452 | 178.53809 | 36836 ft | 480 kts | 40° |
| 2026-04-26 15:39 | -12.01231 | 178.57569 | 36829 ft | 480 kts | 40° |
| 2026-04-26 15:40 | -11.95375 | 178.62784 | 36834 ft | 481 kts | 40° |
| 2026-04-26 15:40 | -11.90331 | 178.67272 | 36832 ft | 481 kts | 40° |
| 2026-04-26 15:41 | -11.85283 | 178.71762 | 36832 ft | 481 kts | 40° |
| 2026-04-26 15:41 | -11.80270 | 178.76218 | 36834 ft | 481 kts | 40° |
| 2026-04-26 15:42 | -11.75225 | 178.80701 | 36833 ft | 481 kts | 40° |
| 2026-04-26 15:42 | -11.70173 | 178.85188 | 36829 ft | 481 kts | 40° |
| 2026-04-26 15:43 | -11.65129 | 178.89665 | 36832 ft | 481 kts | 40° |
| 2026-04-26 15:44 | -11.57581 | 178.96361 | 36833 ft | 482 kts | 40° |
| 2026-04-26 15:44 | -11.50009 | 179.03092 | 36831 ft | 482 kts | 41° |
| 2026-04-26 15:45 | -11.42774 | 179.10207 | 36833 ft | 482 kts | 44° |
| 2026-04-26 15:46 | -11.35667 | 179.17394 | 36831 ft | 482 kts | 44° |
| 2026-04-26 15:46 | -11.32468 | 179.20598 | 36834 ft | 482 kts | 44° |
| 2026-04-26 15:47 | -11.23725 | 179.29311 | 36824 ft | 482 kts | 44° |
| 2026-04-26 15:48 | -11.18933 | 179.34082 | 36822 ft | 482 kts | 44° |
| 2026-04-26 15:48 | -11.14138 | 179.38853 | 36825 ft | 482 kts | 44° |
| 2026-04-26 15:49 | -11.09341 | 179.43625 | 36830 ft | 482 kts | 44° |
| 2026-04-26 15:49 | -11.04546 | 179.48393 | 36826 ft | 482 kts | 44° |
| 2026-04-26 15:50 | -10.99783 | 179.53127 | 36832 ft | 482 kts | 44° |
| 2026-04-26 15:50 | -10.94982 | 179.57896 | 36829 ft | 482 kts | 44° |
| 2026-04-26 15:51 | -10.90186 | 179.62659 | 36830 ft | 482 kts | 44° |
| 2026-04-26 15:51 | -10.85385 | 179.67424 | 36825 ft | 482 kts | 44° |
| 2026-04-26 15:52 | -10.80623 | 179.72148 | 36832 ft | 482 kts | 44° |
| 2026-04-26 15:52 | -10.75822 | 179.76907 | 36825 ft | 482 kts | 44° |
| 2026-04-26 15:53 | -10.71024 | 179.81662 | 36827 ft | 482 kts | 44° |
| 2026-04-26 15:53 | -10.66221 | 179.86420 | 36831 ft | 482 kts | 44° |
| 2026-04-26 15:54 | -10.61451 | 179.91143 | 36828 ft | 482 kts | 44° |
| 2026-04-26 15:54 | -10.56645 | 179.95899 | 36819 ft | 482 kts | 44° |
| 2026-04-26 15:55 | -10.51836 | -179.99343 | 36832 ft | 483 kts | 44° |
| 2026-04-26 15:55 | -10.47018 | -179.94580 | 36824 ft | 483 kts | 44° |
| 2026-04-26 15:56 | -10.42246 | -179.89864 | 36833 ft | 482 kts | 44° |
| 2026-04-26 15:56 | -10.37440 | -179.85116 | 36830 ft | 482 kts | 44° |
| 2026-04-26 15:57 | -10.32637 | -179.80373 | 36827 ft | 481 kts | 44° |
| 2026-04-26 15:57 | -10.27861 | -179.75659 | 36830 ft | 482 kts | 44° |
| 2026-04-26 15:58 | -10.23056 | -179.70919 | 36826 ft | 482 kts | 44° |
| 2026-04-26 15:58 | -10.18246 | -179.66176 | 36831 ft | 482 kts | 44° |
| 2026-04-26 15:59 | -10.13435 | -179.61434 | 36827 ft | 483 kts | 44° |
| 2026-04-26 15:59 | -10.08616 | -179.56687 | 36828 ft | 483 kts | 44° |
| 2026-04-26 16:00 | -10.03830 | -179.51973 | 36826 ft | 483 kts | 44° |
| 2026-04-26 16:00 | -9.99008 | -179.47226 | 36827 ft | 483 kts | 44° |
| 2026-04-26 16:01 | -9.94187 | -179.42483 | 36829 ft | 483 kts | 44° |
| 2026-04-26 16:01 | -9.89362 | -179.37737 | 36823 ft | 483 kts | 44° |
| 2026-04-26 16:02 | -9.84571 | -179.33027 | 36823 ft | 483 kts | 44° |
| 2026-04-26 16:02 | -9.79752 | -179.28291 | 36824 ft | 483 kts | 44° |
| 2026-04-26 16:03 | -9.74924 | -179.23549 | 36827 ft | 483 kts | 44° |
| 2026-04-26 16:03 | -9.70099 | -179.18813 | 36823 ft | 483 kts | 44° |
| 2026-04-26 16:04 | -9.65307 | -179.14109 | 36821 ft | 482 kts | 44° |
| 2026-04-26 16:04 | -9.60485 | -179.09379 | 36821 ft | 482 kts | 45° |
| 2026-04-26 16:05 | -9.55663 | -179.04650 | 36824 ft | 482 kts | 44° |
| 2026-04-26 16:05 | -9.50837 | -178.99920 | 36823 ft | 483 kts | 44° |
| 2026-04-26 16:06 | -9.46044 | -178.95224 | 36822 ft | 483 kts | 44° |
| 2026-04-26 16:06 | -9.41217 | -178.90497 | 36825 ft | 483 kts | 44° |
| 2026-04-26 16:07 | -9.36385 | -178.85766 | 36816 ft | 483 kts | 44° |
| 2026-04-26 16:07 | -9.31555 | -178.81039 | 36814 ft | 482 kts | 45° |
| 2026-04-26 16:08 | -9.26765 | -178.76354 | 36813 ft | 482 kts | 45° |
| 2026-04-26 16:08 | -9.21943 | -178.71639 | 36814 ft | 482 kts | 45° |
| 2026-04-26 16:09 | -9.17119 | -178.66923 | 36816 ft | 482 kts | 45° |
| 2026-04-26 16:09 | -9.12296 | -178.62211 | 36816 ft | 482 kts | 45° |
| 2026-04-26 16:10 | -9.07470 | -178.57499 | 36819 ft | 482 kts | 45° |
| 2026-04-26 16:10 | -9.02674 | -178.52816 | 36818 ft | 483 kts | 45° |
| 2026-04-26 16:11 | -8.97840 | -178.48099 | 36817 ft | 483 kts | 45° |
| 2026-04-26 16:11 | -8.93010 | -178.43388 | 36817 ft | 482 kts | 45° |
| 2026-04-26 16:12 | -8.88181 | -178.38679 | 36816 ft | 482 kts | 45° |
| 2026-04-26 16:12 | -8.80973 | -178.31653 | 36815 ft | 482 kts | 45° |
| 2026-04-26 16:13 | -8.76147 | -178.26952 | 36816 ft | 482 kts | 45° |
| 2026-04-26 16:13 | -8.71316 | -178.22247 | 36817 ft | 482 kts | 45° |
| 2026-04-26 16:14 | -8.66517 | -178.17576 | 36816 ft | 482 kts | 45° |
| 2026-04-26 16:15 | -8.59265 | -178.10520 | 36816 ft | 483 kts | 45° |
| 2026-04-26 16:15 | -8.54430 | -178.05818 | 36816 ft | 482 kts | 45° |
| 2026-04-26 16:16 | -8.47216 | -177.98805 | 36816 ft | 482 kts | 45° |
| 2026-04-26 16:16 | -8.42380 | -177.94106 | 36816 ft | 482 kts | 45° |
| 2026-04-26 16:17 | -8.37545 | -177.89411 | 36813 ft | 482 kts | 45° |
| 2026-04-26 16:17 | -8.32714 | -177.84719 | 36814 ft | 482 kts | 45° |
| 2026-04-26 16:18 | -8.25476 | -177.77696 | 36816 ft | 484 kts | 45° |
| 2026-04-26 16:19 | -8.18199 | -177.70637 | 36815 ft | 484 kts | 45° |
| 2026-04-26 16:20 | -8.10918 | -177.63579 | 36816 ft | 483 kts | 45° |
| 2026-04-26 16:20 | -8.03679 | -177.56564 | 36819 ft | 483 kts | 45° |
| 2026-04-26 16:21 | -7.98824 | -177.51862 | 36817 ft | 484 kts | 45° |
| 2026-04-26 16:21 | -7.93971 | -177.47163 | 36819 ft | 484 kts | 45° |
| 2026-04-26 16:22 | -7.89137 | -177.42485 | 36821 ft | 485 kts | 45° |
| 2026-04-26 16:22 | -7.84263 | -177.37769 | 36821 ft | 485 kts | 44° |
| 2026-04-26 16:23 | -7.79393 | -177.33059 | 36826 ft | 485 kts | 44° |
| 2026-04-26 16:23 | -7.74518 | -177.28346 | 36824 ft | 485 kts | 45° |
| 2026-04-26 16:24 | -7.69678 | -177.23667 | 36825 ft | 485 kts | 45° |
| 2026-04-26 16:24 | -7.64803 | -177.18958 | 36822 ft | 485 kts | 45° |
| 2026-04-26 16:25 | -7.59933 | -177.14253 | 36802 ft | 485 kts | 45° |
| 2026-04-26 16:25 | -7.55058 | -177.09547 | 36806 ft | 485 kts | 44° |
| 2026-04-26 16:26 | -7.51003 | -177.05632 | 36828 ft | 485 kts | 44° |
| 2026-04-26 16:26 | -7.45336 | -177.00164 | 36827 ft | 485 kts | 44° |
| 2026-04-26 16:27 | -7.40457 | -176.95457 | 36810 ft | 486 kts | 44° |
| 2026-04-26 16:27 | -7.36405 | -176.91550 | 36811 ft | 486 kts | 44° |
| 2026-04-26 16:28 | -7.31521 | -176.86842 | 36812 ft | 486 kts | 44° |
| 2026-04-26 16:28 | -7.25849 | -176.81376 | 36810 ft | 486 kts | 44° |
| 2026-04-26 16:29 | -7.21763 | -176.77438 | 36830 ft | 486 kts | 44° |
| 2026-04-26 16:29 | -7.16910 | -176.72765 | 36811 ft | 486 kts | 44° |
| 2026-04-26 16:30 | -7.12024 | -176.68060 | 36825 ft | 486 kts | 44° |
| 2026-04-26 16:30 | -7.07141 | -176.63360 | 36825 ft | 486 kts | 44° |
| 2026-04-26 16:31 | -7.02257 | -176.58661 | 36808 ft | 486 kts | 44° |
| 2026-04-26 16:31 | -6.97405 | -176.53993 | 36828 ft | 485 kts | 44° |
| 2026-04-26 16:32 | -6.92526 | -176.49301 | 36813 ft | 485 kts | 44° |
| 2026-04-26 16:32 | -6.87651 | -176.44614 | 36812 ft | 485 kts | 44° |
| 2026-04-26 16:33 | -6.82773 | -176.39927 | 36824 ft | 485 kts | 44° |
| 2026-04-26 16:33 | -6.77893 | -176.35238 | 36807 ft | 486 kts | 44° |
| 2026-04-26 16:34 | -6.73034 | -176.30570 | 36808 ft | 486 kts | 44° |
| 2026-04-26 16:34 | -6.68141 | -176.25872 | 36827 ft | 486 kts | 44° |
| 2026-04-26 16:35 | -6.63242 | -176.21169 | 36807 ft | 486 kts | 44° |
| 2026-04-26 16:35 | -6.58347 | -176.16472 | 36818 ft | 486 kts | 44° |
| 2026-04-26 16:36 | -6.53489 | -176.11810 | 36817 ft | 486 kts | 44° |
| 2026-04-26 16:36 | -6.48598 | -176.07120 | 36819 ft | 486 kts | 44° |
| 2026-04-26 16:37 | -6.43709 | -176.02432 | 36819 ft | 486 kts | 44° |
| 2026-04-26 16:37 | -6.38813 | -175.97739 | 36817 ft | 487 kts | 44° |
| 2026-04-26 16:38 | -6.33905 | -175.93035 | 36821 ft | 487 kts | 44° |
| 2026-04-26 16:38 | -6.29033 | -175.88367 | 36821 ft | 487 kts | 44° |
| 2026-04-26 16:39 | -6.24130 | -175.83672 | 36818 ft | 487 kts | 44° |
| 2026-04-26 16:39 | -6.19221 | -175.78970 | 36819 ft | 487 kts | 44° |
| 2026-04-26 16:40 | -6.14313 | -175.74273 | 36819 ft | 487 kts | 44° |
| 2026-04-26 16:40 | -6.09444 | -175.69613 | 36817 ft | 487 kts | 44° |
| 2026-04-26 16:41 | -6.04533 | -175.64914 | 36819 ft | 487 kts | 44° |
| 2026-04-26 16:41 | -5.99624 | -175.60219 | 36817 ft | 487 kts | 44° |
| 2026-04-26 16:42 | -5.94745 | -175.55552 | 36814 ft | 487 kts | 44° |
| 2026-04-26 16:42 | -5.89836 | -175.50859 | 36812 ft | 487 kts | 44° |
| 2026-04-26 16:43 | -5.84925 | -175.46166 | 36816 ft | 487 kts | 44° |
| 2026-04-26 16:43 | -5.80012 | -175.41471 | 36817 ft | 487 kts | 44° |
| 2026-04-26 16:44 | -5.75106 | -175.36784 | 36815 ft | 487 kts | 44° |
| 2026-04-26 16:44 | -5.70231 | -175.32129 | 36816 ft | 487 kts | 44° |
| 2026-04-26 16:45 | -5.65325 | -175.27445 | 36815 ft | 487 kts | 43° |
| 2026-04-26 16:45 | -5.60417 | -175.22759 | 36816 ft | 487 kts | 43° |
| 2026-04-26 16:46 | -5.55511 | -175.18077 | 36814 ft | 487 kts | 43° |
| 2026-04-26 16:46 | -5.50602 | -175.13393 | 36816 ft | 487 kts | 43° |
| 2026-04-26 16:47 | -5.45723 | -175.08740 | 36816 ft | 487 kts | 43° |
| 2026-04-26 16:47 | -5.40812 | -175.04055 | 36817 ft | 487 kts | 43° |
| 2026-04-26 16:48 | -5.35909 | -174.99381 | 36817 ft | 486 kts | 43° |
| 2026-04-26 16:48 | -5.31009 | -174.94711 | 36819 ft | 486 kts | 43° |
| 2026-04-26 16:49 | -5.26144 | -174.90074 | 36819 ft | 486 kts | 43° |
| 2026-04-26 16:49 | -5.21245 | -174.85406 | 36817 ft | 486 kts | 43° |
| 2026-04-26 16:50 | -5.16344 | -174.80738 | 36819 ft | 486 kts | 43° |
| 2026-04-26 16:50 | -5.11445 | -174.76073 | 36819 ft | 486 kts | 43° |
| 2026-04-26 16:51 | -5.06547 | -174.71409 | 36819 ft | 486 kts | 43° |
| 2026-04-26 16:51 | -5.01672 | -174.66783 | 36818 ft | 486 kts | 41° |
| 2026-04-26 16:52 | -4.97128 | -174.63429 | 36819 ft | 484 kts | 32° |
| 2026-04-26 16:52 | -4.90525 | -174.59235 | 36819 ft | 483 kts | 31° |
| 2026-04-26 16:53 | -4.84789 | -174.55711 | 36813 ft | 483 kts | 30° |
| 2026-04-26 16:53 | -4.79056 | -174.52184 | 36817 ft | 484 kts | 31° |
| 2026-04-26 16:54 | -4.73371 | -174.48669 | 36816 ft | 484 kts | 31° |
| 2026-04-26 16:54 | -4.67644 | -174.45121 | 36809 ft | 484 kts | 31° |
| 2026-04-26 16:55 | -4.61921 | -174.41575 | 36814 ft | 484 kts | 31° |
| 2026-04-26 16:55 | -4.56197 | -174.38028 | 36816 ft | 483 kts | 31° |
| 2026-04-26 16:56 | -4.47645 | -174.32733 | 36814 ft | 485 kts | 30° |
| 2026-04-26 16:57 | -4.41906 | -174.29181 | 36811 ft | 485 kts | 30° |
| 2026-04-26 16:57 | -4.33305 | -174.23858 | 36814 ft | 484 kts | 30° |
| 2026-04-26 16:58 | -4.28545 | -174.20912 | 36814 ft | 484 kts | 30° |
| 2026-04-26 16:59 | -4.19025 | -174.15023 | 36817 ft | 484 kts | 30° |
| 2026-04-26 17:00 | -4.07560 | -174.07932 | 36817 ft | 485 kts | 30° |
| 2026-04-26 17:00 | -3.98986 | -174.02632 | 36817 ft | 485 kts | 30° |
| 2026-04-26 17:01 | -3.93240 | -173.99080 | 36815 ft | 485 kts | 30° |
| 2026-04-26 17:01 | -3.87499 | -173.95532 | 36817 ft | 485 kts | 30° |
| 2026-04-26 17:02 | -3.81759 | -173.91985 | 36816 ft | 485 kts | 30° |
| 2026-04-26 17:02 | -3.76061 | -173.88464 | 36810 ft | 484 kts | 30° |
| 2026-04-26 17:03 | -3.70340 | -173.84930 | 36812 ft | 479 kts | 30° |
| 2026-04-26 17:03 | -3.64733 | -173.81465 | 36814 ft | 471 kts | 30° |
| 2026-04-26 17:04 | -3.59162 | -173.78025 | 36815 ft | 471 kts | 30° |
| 2026-04-26 17:04 | -3.53622 | -173.74605 | 36817 ft | 471 kts | 30° |
| 2026-04-26 17:05 | -3.48046 | -173.71163 | 36815 ft | 471 kts | 30° |
| 2026-04-26 17:05 | -3.42471 | -173.67722 | 36815 ft | 471 kts | 30° |
| 2026-04-26 17:06 | -3.36894 | -173.64280 | 36811 ft | 471 kts | 30° |
| 2026-04-26 17:06 | -3.31314 | -173.60837 | 36813 ft | 471 kts | 30° |
| 2026-04-26 17:07 | -3.25739 | -173.57397 | 36813 ft | 471 kts | 30° |
| 2026-04-26 17:07 | -3.20198 | -173.53978 | 36812 ft | 471 kts | 30° |
| 2026-04-26 17:08 | -3.14625 | -173.50540 | 36813 ft | 470 kts | 30° |
| 2026-04-26 17:08 | -3.09051 | -173.47102 | 36815 ft | 470 kts | 30° |
| 2026-04-26 17:09 | -3.04425 | -173.44249 | 36816 ft | 470 kts | 30° |
| 2026-04-26 17:09 | -2.97949 | -173.40256 | 36812 ft | 471 kts | 30° |
| 2026-04-26 17:10 | -2.92375 | -173.36819 | 36811 ft | 471 kts | 30° |
| 2026-04-26 17:10 | -2.86800 | -173.33382 | 36813 ft | 471 kts | 30° |
| 2026-04-26 17:11 | -2.81224 | -173.29945 | 36811 ft | 471 kts | 30° |
| 2026-04-26 17:11 | -2.75687 | -173.26532 | 36811 ft | 471 kts | 30° |
| 2026-04-26 17:12 | -2.67322 | -173.21377 | 36814 ft | 471 kts | 30° |
| 2026-04-26 17:13 | -2.58966 | -173.16228 | 36814 ft | 470 kts | 29° |
| 2026-04-26 17:14 | -2.50652 | -173.11106 | 36814 ft | 470 kts | 29° |
| 2026-04-26 17:14 | -2.42298 | -173.05961 | 36808 ft | 470 kts | 29° |
| 2026-04-26 17:15 | -2.33944 | -173.00815 | 36812 ft | 470 kts | 29° |
| 2026-04-26 17:16 | -2.28374 | -172.97385 | 36812 ft | 470 kts | 29° |
| 2026-04-26 17:16 | -2.22848 | -172.93982 | 36808 ft | 470 kts | 29° |
| 2026-04-26 17:17 | -2.17288 | -172.90559 | 36807 ft | 469 kts | 29° |
| 2026-04-26 17:17 | -2.11727 | -172.87135 | 36811 ft | 469 kts | 29° |
| 2026-04-26 17:18 | -2.06171 | -172.83715 | 36809 ft | 469 kts | 29° |
| 2026-04-26 17:18 | -2.00650 | -172.80317 | 36805 ft | 469 kts | 29° |
| 2026-04-26 17:19 | -1.92313 | -172.75185 | 36814 ft | 469 kts | 28° |
| 2026-04-26 17:19 | -1.86793 | -172.71788 | 36812 ft | 469 kts | 28° |
| 2026-04-26 17:20 | -1.82146 | -172.68928 | 36813 ft | 468 kts | 28° |
| 2026-04-26 17:20 | -1.75705 | -172.64965 | 36814 ft | 468 kts | 28° |
| 2026-04-26 17:21 | -1.70157 | -172.61552 | 36811 ft | 468 kts | 28° |
| 2026-04-26 17:21 | -1.64612 | -172.58140 | 36811 ft | 468 kts | 28° |
| 2026-04-26 17:22 | -1.59102 | -172.54750 | 36809 ft | 468 kts | 28° |
| 2026-04-26 17:22 | -1.53555 | -172.51338 | 36811 ft | 468 kts | 28° |
| 2026-04-26 17:23 | -1.48010 | -172.47927 | 36814 ft | 468 kts | 28° |
| 2026-04-26 17:23 | -1.42459 | -172.44513 | 36809 ft | 468 kts | 28° |
| 2026-04-26 17:24 | -1.36946 | -172.41122 | 36810 ft | 468 kts | 28° |
| 2026-04-26 17:24 | -1.31395 | -172.37708 | 36809 ft | 469 kts | 28° |
| 2026-04-26 17:25 | -1.25838 | -172.34291 | 36809 ft | 469 kts | 28° |
| 2026-04-26 17:25 | -1.20276 | -172.30871 | 36814 ft | 469 kts | 28° |
| 2026-04-26 17:26 | -1.14717 | -172.27452 | 36812 ft | 469 kts | 28° |
| 2026-04-26 17:26 | -1.09190 | -172.24053 | 36814 ft | 470 kts | 28° |
| 2026-04-26 17:27 | -1.03621 | -172.20630 | 36815 ft | 470 kts | 28° |
| 2026-04-26 17:27 | -0.98053 | -172.17206 | 36816 ft | 470 kts | 28° |
| 2026-04-26 17:28 | -0.92483 | -172.13781 | 36814 ft | 470 kts | 28° |
| 2026-04-26 17:28 | -0.86909 | -172.10354 | 36814 ft | 470 kts | 28° |
| 2026-04-26 17:29 | -0.82279 | -172.07508 | 36814 ft | 470 kts | 28° |
| 2026-04-26 17:29 | -0.75804 | -172.03527 | 36815 ft | 470 kts | 28° |
| 2026-04-26 17:30 | -0.70235 | -172.00103 | 36819 ft | 470 kts | 28° |
| 2026-04-26 17:30 | -0.64703 | -171.96703 | 36819 ft | 470 kts | 28° |
| 2026-04-26 17:31 | -0.59139 | -171.93283 | 36814 ft | 470 kts | 28° |
| 2026-04-26 17:31 | -0.53568 | -171.89859 | 36816 ft | 470 kts | 28° |
| 2026-04-26 17:32 | -0.48002 | -171.86437 | 36818 ft | 470 kts | 28° |
| 2026-04-26 17:32 | -0.42437 | -171.83017 | 36814 ft | 470 kts | 28° |
| 2026-04-26 17:33 | -0.36904 | -171.79615 | 36817 ft | 470 kts | 28° |
| 2026-04-26 17:34 | -0.28553 | -171.74483 | 36820 ft | 470 kts | 28° |
| 2026-04-26 17:34 | -0.22988 | -171.71062 | 36819 ft | 470 kts | 28° |
| 2026-04-26 17:35 | -0.17420 | -171.67640 | 36817 ft | 470 kts | 28° |
| 2026-04-26 17:35 | -0.11891 | -171.64242 | 36818 ft | 470 kts | 27° |
| 2026-04-26 17:36 | -0.06329 | -171.60823 | 36819 ft | 469 kts | 27° |
| 2026-04-26 17:36 | -0.00769 | -171.57406 | 36822 ft | 469 kts | 27° |
| 2026-04-26 17:37 | 0.04786 | -171.53992 | 36817 ft | 468 kts | 28° |
| 2026-04-26 17:37 | 0.10315 | -171.50593 | 36820 ft | 466 kts | 28° |
| 2026-04-26 17:38 | 0.18562 | -171.45525 | 36819 ft | 466 kts | 28° |
| 2026-04-26 17:38 | 0.24082 | -171.42132 | 36819 ft | 466 kts | 28° |
| 2026-04-26 17:39 | 0.29609 | -171.38735 | 36822 ft | 466 kts | 28° |
| 2026-04-26 17:39 | 0.35130 | -171.35341 | 36820 ft | 466 kts | 28° |
| 2026-04-26 17:40 | 0.39724 | -171.32518 | 36821 ft | 466 kts | 28° |
| 2026-04-26 17:40 | 0.46144 | -171.28572 | 36822 ft | 466 kts | 28° |
| 2026-04-26 17:41 | 0.51669 | -171.25176 | 36821 ft | 466 kts | 28° |
| 2026-04-26 17:41 | 0.57191 | -171.21781 | 36822 ft | 466 kts | 28° |
| 2026-04-26 17:42 | 0.62671 | -171.18413 | 36821 ft | 466 kts | 28° |
| 2026-04-26 17:42 | 0.68193 | -171.15018 | 36822 ft | 466 kts | 28° |
| 2026-04-26 17:43 | 0.73713 | -171.11625 | 36821 ft | 466 kts | 28° |
| 2026-04-26 17:43 | 0.79232 | -171.08232 | 36822 ft | 466 kts | 28° |
| 2026-04-26 17:44 | 0.84723 | -171.04857 | 36822 ft | 466 kts | 28° |
| 2026-04-26 17:44 | 0.90253 | -171.01457 | 36820 ft | 466 kts | 28° |
| 2026-04-26 17:45 | 0.95777 | -170.98060 | 36821 ft | 467 kts | 28° |
| 2026-04-26 17:45 | 1.01308 | -170.94660 | 36822 ft | 467 kts | 28° |
| 2026-04-26 17:46 | 1.06800 | -170.91283 | 36825 ft | 467 kts | 28° |
| 2026-04-26 17:46 | 1.12327 | -170.87884 | 36825 ft | 467 kts | 28° |
| 2026-04-26 17:47 | 1.16924 | -170.85057 | 36823 ft | 466 kts | 28° |
| 2026-04-26 17:47 | 1.23369 | -170.81094 | 36822 ft | 465 kts | 28° |
| 2026-04-26 17:48 | 1.28883 | -170.77703 | 36821 ft | 465 kts | 28° |
| 2026-04-26 17:48 | 1.34358 | -170.74336 | 36824 ft | 465 kts | 28° |
| 2026-04-26 17:49 | 1.39872 | -170.70945 | 36828 ft | 465 kts | 28° |
| 2026-04-26 17:49 | 1.45389 | -170.67552 | 36827 ft | 466 kts | 28° |
| 2026-04-26 17:50 | 1.50905 | -170.64159 | 36830 ft | 465 kts | 28° |
| 2026-04-26 17:50 | 1.56371 | -170.60796 | 36826 ft | 463 kts | 28° |
| 2026-04-26 17:51 | 1.61849 | -170.57425 | 36826 ft | 462 kts | 28° |
| 2026-04-26 17:51 | 1.67328 | -170.54055 | 36825 ft | 462 kts | 28° |
| 2026-04-26 17:52 | 1.72800 | -170.50688 | 36827 ft | 462 kts | 27° |
| 2026-04-26 17:52 | 1.78265 | -170.47326 | 36828 ft | 461 kts | 27° |
| 2026-04-26 17:53 | 1.83696 | -170.43984 | 36832 ft | 461 kts | 27° |
| 2026-04-26 17:54 | 1.91891 | -170.38941 | 36832 ft | 461 kts | 28° |
| 2026-04-26 17:54 | 1.97355 | -170.35578 | 36832 ft | 461 kts | 28° |
| 2026-04-26 17:55 | 2.02818 | -170.32216 | 36834 ft | 461 kts | 28° |
| 2026-04-26 17:55 | 2.08244 | -170.28875 | 36832 ft | 461 kts | 28° |
| 2026-04-26 17:56 | 2.13704 | -170.25514 | 36835 ft | 461 kts | 28° |
| 2026-04-26 17:57 | 2.24628 | -170.18788 | 36835 ft | 461 kts | 28° |
| 2026-04-26 17:57 | 2.30050 | -170.15450 | 36836 ft | 461 kts | 28° |
| 2026-04-26 17:58 | 2.40958 | -170.08732 | 36838 ft | 460 kts | 28° |
| 2026-04-26 17:59 | 2.49133 | -170.03696 | 36839 ft | 460 kts | 28° |
| 2026-04-26 17:59 | 2.54552 | -170.00359 | 36839 ft | 460 kts | 28° |
| 2026-04-26 18:00 | 2.60005 | -169.96999 | 36844 ft | 460 kts | 28° |
| 2026-04-26 18:00 | 2.65453 | -169.93646 | 36842 ft | 460 kts | 28° |
| 2026-04-26 18:01 | 2.70895 | -169.90311 | 36845 ft | 458 kts | 28° |
| 2026-04-26 18:01 | 2.76286 | -169.87011 | 36843 ft | 457 kts | 28° |
| 2026-04-26 18:02 | 2.80838 | -169.84225 | 36843 ft | 458 kts | 28° |
| 2026-04-26 18:02 | 2.87146 | -169.80362 | 36843 ft | 458 kts | 28° |
| 2026-04-26 18:03 | 2.92576 | -169.77035 | 36842 ft | 458 kts | 28° |
| 2026-04-26 18:03 | 2.98009 | -169.73706 | 36839 ft | 458 kts | 28° |
| 2026-04-26 18:04 | 3.03399 | -169.70403 | 36844 ft | 457 kts | 29° |
| 2026-04-26 18:05 | 3.11492 | -169.65441 | 36840 ft | 454 kts | 29° |
| 2026-04-26 18:05 | 3.16881 | -169.62139 | 36845 ft | 454 kts | 29° |
| 2026-04-26 18:06 | 3.22274 | -169.58833 | 36847 ft | 454 kts | 29° |
| 2026-04-26 18:06 | 3.27630 | -169.55549 | 36843 ft | 454 kts | 29° |
| 2026-04-26 18:07 | 3.33020 | -169.52244 | 36842 ft | 454 kts | 29° |
| 2026-04-26 18:07 | 3.38408 | -169.48939 | 36842 ft | 454 kts | 29° |
| 2026-04-26 18:08 | 3.43810 | -169.45627 | 36845 ft | 456 kts | 30° |
| 2026-04-26 18:08 | 3.49182 | -169.42333 | 36846 ft | 456 kts | 29° |
| 2026-04-26 18:09 | 3.54591 | -169.39014 | 36847 ft | 456 kts | 29° |
| 2026-04-26 18:09 | 3.59997 | -169.35696 | 36846 ft | 456 kts | 29° |
| 2026-04-26 18:10 | 3.65402 | -169.32379 | 36842 ft | 456 kts | 30° |
| 2026-04-26 18:10 | 3.70805 | -169.29060 | 36846 ft | 456 kts | 29° |
| 2026-04-26 18:11 | 3.76171 | -169.25765 | 36842 ft | 456 kts | 30° |
| 2026-04-26 18:11 | 3.81592 | -169.22438 | 36846 ft | 458 kts | 29° |
| 2026-04-26 18:12 | 3.87030 | -169.19099 | 36845 ft | 459 kts | 30° |
| 2026-04-26 18:12 | 3.92471 | -169.15759 | 36847 ft | 459 kts | 30° |
| 2026-04-26 18:13 | 3.97874 | -169.12440 | 36847 ft | 459 kts | 29° |
| 2026-04-26 18:13 | 4.03313 | -169.09096 | 36848 ft | 459 kts | 29° |
| 2026-04-26 18:14 | 4.08752 | -169.05754 | 36848 ft | 459 kts | 30° |
| 2026-04-26 18:14 | 4.14193 | -169.02410 | 36847 ft | 458 kts | 29° |
| 2026-04-26 18:15 | 4.19626 | -168.99072 | 36851 ft | 458 kts | 30° |
| 2026-04-26 18:15 | 4.25023 | -168.95753 | 36851 ft | 458 kts | 29° |
| 2026-04-26 18:16 | 4.30454 | -168.92415 | 36854 ft | 458 kts | 29° |
| 2026-04-26 18:16 | 4.38606 | -168.87403 | 36852 ft | 458 kts | 29° |
| 2026-04-26 18:17 | 4.44004 | -168.84082 | 36852 ft | 458 kts | 29° |
| 2026-04-26 18:17 | 4.49438 | -168.80739 | 36856 ft | 458 kts | 29° |
| 2026-04-26 18:18 | 4.54871 | -168.77396 | 36855 ft | 459 kts | 29° |
| 2026-04-26 18:18 | 4.60312 | -168.74046 | 36852 ft | 459 kts | 30° |
| 2026-04-26 18:19 | 4.65755 | -168.70695 | 36854 ft | 459 kts | 30° |
| 2026-04-26 18:19 | 4.71162 | -168.67366 | 36852 ft | 459 kts | 29° |
| 2026-04-26 18:20 | 4.76602 | -168.64016 | 36857 ft | 459 kts | 30° |
| 2026-04-26 18:20 | 4.80245 | -168.61772 | 36855 ft | 459 kts | 30° |
| 2026-04-26 18:21 | 4.87492 | -168.57307 | 36856 ft | 460 kts | 29° |
| 2026-04-26 18:21 | 4.92921 | -168.53965 | 36856 ft | 462 kts | 29° |
| 2026-04-26 18:22 | 4.98394 | -168.50592 | 36858 ft | 462 kts | 29° |
| 2026-04-26 18:22 | 5.03875 | -168.47214 | 36858 ft | 462 kts | 29° |
| 2026-04-26 18:23 | 5.09336 | -168.43847 | 36858 ft | 460 kts | 29° |
| 2026-04-26 18:23 | 5.14746 | -168.40510 | 36853 ft | 460 kts | 29° |
| 2026-04-26 18:24 | 5.20195 | -168.37150 | 36861 ft | 460 kts | 29° |
| 2026-04-26 18:24 | 5.25648 | -168.33786 | 36864 ft | 460 kts | 29° |
| 2026-04-26 18:25 | 5.31109 | -168.30417 | 36864 ft | 461 kts | 29° |
| 2026-04-26 18:25 | 5.36581 | -168.27040 | 36860 ft | 461 kts | 29° |
| 2026-04-26 18:26 | 5.42010 | -168.23689 | 36862 ft | 461 kts | 29° |
| 2026-04-26 18:26 | 5.47478 | -168.20313 | 36859 ft | 461 kts | 29° |
| 2026-04-26 18:27 | 5.52946 | -168.16936 | 36863 ft | 461 kts | 29° |
| 2026-04-26 18:27 | 5.58411 | -168.13561 | 36862 ft | 461 kts | 29° |
| 2026-04-26 18:28 | 5.63886 | -168.10178 | 36860 ft | 462 kts | 28° |
| 2026-04-26 18:28 | 5.69329 | -168.06815 | 36864 ft | 463 kts | 28° |
| 2026-04-26 18:29 | 5.74814 | -168.03426 | 36862 ft | 463 kts | 28° |
| 2026-04-26 18:29 | 5.80293 | -168.00038 | 36864 ft | 463 kts | 28° |
| 2026-04-26 18:30 | 5.85775 | -167.96648 | 36865 ft | 463 kts | 28° |
| 2026-04-26 18:30 | 5.91218 | -167.93282 | 36864 ft | 463 kts | 28° |
| 2026-04-26 18:31 | 5.96705 | -167.89887 | 36869 ft | 463 kts | 28° |
| 2026-04-26 18:31 | 6.02210 | -167.86482 | 36865 ft | 466 kts | 28° |
| 2026-04-26 18:32 | 6.07731 | -167.83065 | 36866 ft | 466 kts | 28° |
| 2026-04-26 18:32 | 6.13216 | -167.79668 | 36866 ft | 466 kts | 28° |
| 2026-04-26 18:33 | 6.18739 | -167.76248 | 36869 ft | 466 kts | 28° |
| 2026-04-26 18:33 | 6.24262 | -167.72827 | 36865 ft | 466 kts | 28° |
| 2026-04-26 18:34 | 6.29784 | -167.69406 | 36868 ft | 466 kts | 28° |
| 2026-04-26 18:34 | 6.35272 | -167.66004 | 36867 ft | 466 kts | 28° |
| 2026-04-26 18:35 | 6.40791 | -167.62583 | 36874 ft | 466 kts | 28° |
| 2026-04-26 18:35 | 6.46312 | -167.59160 | 36875 ft | 466 kts | 28° |
| 2026-04-26 18:36 | 6.51832 | -167.55737 | 36875 ft | 466 kts | 28° |
| 2026-04-26 18:36 | 6.57318 | -167.52333 | 36873 ft | 466 kts | 28° |